NOAA Web Site Link Tides and Currents Home Page Transparent placeholder image

PORTS® Data Listing: 9414290 San Francisco, CA

CO-OPS RAW PORTS DATA

************************      PRELIMINARY DATA      ************************** 

     THIS RAW DATA HAS NOT BEEN SUBJECT TO THE NATIONAL OCEAN SERVICE'S        
     QUALITY CONTROL OR QUALITY ASSURANCE PROCEDURES AND DOES NOT MEET         
     THE CRITERIA AND STANDARDS OF OFFICIAL NATIONAL OCEAN SERVICE             
     DATA.  IT IS RELEASED FOR LIMITED PUBLIC USE AS PRELIMINARY DATA TO       
     BE USED ONLY WITH APPROPRIATE CAUTION.                                    

************************      PRELIMINARY DATA      ************************** 


       CD   -   Calendar date
       T    -   Time
       TZ   -   Timezone
       PW   -   Predicted water level (feet above MLLW)
       OW   -   Observed water level (feet above MLLW)
       WS   -   Wind speed (knots)
       WD   -   Wind direction (degrees true)
       WG   -   Wind gust (knots)
       AT   -   Air temperature (degrees farenheit)
       WT   -   Water temperature (degrees farenheit)
       AP   -   Air pressure (millibars)
       SA   -   Salinty (PSU - Practical Salinity Units)
       SG   -   Specific gravity
       RH   -   Relative humidity
       AG   -   Air gap (feet)
       VI   -   Visibility (nautical miles)

       ** NOTE **
       A variable that has its data fields filled with "9"s, indicates that
       data was not collected for that sample period.
       **********


STATION NAME: San Francisco (9414290)
****************************************************************************************************
    CD       T    TZ    PW     OW    WS   WD   WG    AT    WT    AP    SA    SG     RH    AG   VI
****************************************************************************************************
2019/07/17 17:36 PDT    3.17   3.32   10  258   15  56.3  58.3 1012.8 -9.9 -9.999 -99.9 -99.99 -9.99
2019/07/17 17:42 PDT    3.13   3.27   11  253   15  56.1  58.5 1012.8 -9.9 -9.999 -99.9 -99.99 -9.99
2019/07/17 17:48 PDT    3.10   3.20   11  258   16  56.1  58.3 1012.8 -9.9 -9.999 -99.9 -99.99 -9.99
2019/07/17 17:54 PDT    3.08   3.20   11  261   16  56.1  58.5 1012.7 -9.9 -9.999 -99.9 -99.99 -9.99
2019/07/17 18:00 PDT    3.06   3.16   11  260   16  55.9  58.6 1012.7 -9.9 -9.999 -99.9 -99.99 -9.99
2019/07/17 18:06 PDT    3.04   3.13   12  245   17  55.9  59.0 1012.6 -9.9 -9.999 -99.9 -99.99 -9.99
2019/07/17 18:12 PDT    3.02   3.12   11  258   17  55.8  59.2 1012.6 -9.9 -9.999 -99.9 -99.99 -9.99
2019/07/17 18:18 PDT    3.01   3.08   12  256   18  55.4  59.4 1012.6 -9.9 -9.999 -99.9 -99.99 -9.99
2019/07/17 18:24 PDT    3.01   3.07   12  256   18  55.4  59.4 1012.5 -9.9 -9.999 -99.9 -99.99 -9.99
2019/07/17 18:30 PDT    3.01   3.09   11  254   17  55.4  59.4 1012.5 -9.9 -9.999 -99.9 -99.99 -9.99
2019/07/17 18:36 PDT    3.01   3.15   13  251   20  55.2  59.4 1012.5 -9.9 -9.999 -99.9 -99.99 -9.99
2019/07/17 18:42 PDT    3.01   3.13   14  243   19  55.2  59.2 1012.5 -9.9 -9.999 -99.9 -99.99 -9.99
2019/07/17 18:48 PDT    3.02   3.12   12  247   20  55.4  59.2 1012.4 -9.9 -9.999 -99.9 -99.99 -9.99
2019/07/17 18:54 PDT    3.04   3.11   12  242   18  56.1  59.2 1012.4 -9.9 -9.999 -99.9 -99.99 -9.99
2019/07/17 19:00 PDT    3.06   3.13   10  244   16  56.8  59.2 1012.4 -9.9 -9.999 -99.9 -99.99 -9.99
2019/07/17 19:06 PDT    3.08   3.15   13  242   16  57.6  59.2 1012.4 -9.9 -9.999 -99.9 -99.99 -9.99
2019/07/17 19:12 PDT    3.10   3.19   12  242   17  57.9  59.2 1012.5 -9.9 -9.999 -99.9 -99.99 -9.99
2019/07/17 19:18 PDT    3.13   3.23   12  245   18  58.1  59.4 1012.4 -9.9 -9.999 -99.9 -99.99 -9.99
2019/07/17 19:24 PDT    3.17   3.26   12  248   20  58.3  59.4 1012.4 -9.9 -9.999 -99.9 -99.99 -9.99
2019/07/17 19:30 PDT    3.20   3.32   14  246   19  58.3  59.5 1012.4 -9.9 -9.999 -99.9 -99.99 -9.99
2019/07/17 19:36 PDT    3.25   3.35   13  245   18  58.5  59.5 1012.4 -9.9 -9.999 -99.9 -99.99 -9.99
2019/07/17 19:42 PDT    3.29   3.42   12  245   19  58.5  59.5 1012.4 -9.9 -9.999 -99.9 -99.99 -9.99
2019/07/17 19:48 PDT    3.34   3.47   14  244   20  58.5  59.5 1012.4 -9.9 -9.999 -99.9 -99.99 -9.99
2019/07/17 19:54 PDT    3.39   3.51   14  244   19  58.5  59.5 1012.4 -9.9 -9.999 -99.9 -99.99 -9.99
2019/07/17 20:00 PDT    3.44   3.55   14  243   20  58.3  59.5 1012.4 -9.9 -9.999 -99.9 -99.99 -9.99
2019/07/17 20:06 PDT    3.50   3.59   14  241   23  58.1  59.5 1012.3 -9.9 -9.999 -99.9 -99.99 -9.99
2019/07/17 20:12 PDT    3.56   3.62   15  245   23  58.1  59.5 1012.3 -9.9 -9.999 -99.9 -99.99 -9.99
2019/07/17 20:18 PDT    3.63   3.66   12  244   20  58.1  59.5 1012.3 -9.9 -9.999 -99.9 -99.99 -9.99
2019/07/17 20:24 PDT    3.69   3.73   16  240   23  57.9  59.5 1012.3 -9.9 -9.999 -99.9 -99.99 -9.99
2019/07/17 20:30 PDT    3.76   3.80   14  243   20  57.9  59.4 1012.3 -9.9 -9.999 -99.9 -99.99 -9.99
2019/07/17 20:36 PDT    3.83   3.92   14  246   21  57.9  59.4 1012.4 -9.9 -9.999 -99.9 -99.99 -9.99
2019/07/17 20:42 PDT    3.90   3.99   14  245   20  57.7  59.2 1012.4 -9.9 -9.999 -99.9 -99.99 -9.99
2019/07/17 20:48 PDT    3.98   4.06   11  239   21  57.7  59.2 1012.5 -9.9 -9.999 -99.9 -99.99 -9.99
2019/07/17 20:54 PDT    4.05   4.11   12  244   19  57.7  59.2 1012.6 -9.9 -9.999 -99.9 -99.99 -9.99
2019/07/17 21:00 PDT    4.13   4.21   10  237   18  57.9  59.2 1012.6 -9.9 -9.999 -99.9 -99.99 -9.99
2019/07/17 21:06 PDT    4.21   4.33    9  233   14  57.9  59.2 1012.7 -9.9 -9.999 -99.9 -99.99 -9.99
2019/07/17 21:12 PDT    4.29   4.44    5  229   13  57.9  59.0 1012.8 -9.9 -9.999 -99.9 -99.99 -9.99
2019/07/17 21:18 PDT    4.36   4.51    8  231   13  57.9  59.0 1012.8 -9.9 -9.999 -99.9 -99.99 -9.99
2019/07/17 21:24 PDT    4.44   4.59    7  209   11  57.9  59.0 1012.8 -9.9 -9.999 -99.9 -99.99 -9.99
2019/07/17 21:30 PDT    4.52   4.61    6  214    9  57.9  59.0 1012.8 -9.9 -9.999 -99.9 -99.99 -9.99
2019/07/17 21:36 PDT    4.60   4.70    6  214   11  57.9  59.0 1012.8 -9.9 -9.999 -99.9 -99.99 -9.99
2019/07/17 21:42 PDT    4.68   4.80    6  223   10  57.9  59.0 1012.9 -9.9 -9.999 -99.9 -99.99 -9.99
2019/07/17 21:48 PDT    4.76   4.89    5  207   11  57.9  58.8 1012.9 -9.9 -9.999 -99.9 -99.99 -9.99
2019/07/17 21:54 PDT    4.84   4.99    5  211   11  57.9  58.8 1012.9 -9.9 -9.999 -99.9 -99.99 -9.99
2019/07/17 22:00 PDT    4.92   5.06    5  202   13  57.9  58.6 1013.0 -9.9 -9.999 -99.9 -99.99 -9.99
2019/07/17 22:06 PDT    5.00   5.12    6  211   10  58.1  58.6 1013.0 -9.9 -9.999 -99.9 -99.99 -9.99
2019/07/17 22:12 PDT    5.07   5.18    6  207   13  58.1  58.6 1013.1 -9.9 -9.999 -99.9 -99.99 -9.99
2019/07/17 22:18 PDT    5.15   5.25    7  197   12  58.1  58.6 1013.1 -9.9 -9.999 -99.9 -99.99 -9.99
2019/07/17 22:24 PDT    5.22   5.32    7  210   14  58.1  58.6 1013.1 -9.9 -9.999 -99.9 -99.99 -9.99
2019/07/17 22:30 PDT    5.29   5.42    4  199   11  58.3  58.6 1013.1 -9.9 -9.999 -99.9 -99.99 -9.99
2019/07/17 22:36 PDT    5.36   5.50    7  210   11  58.3  58.6 1013.2 -9.9 -9.999 -99.9 -99.99 -9.99
2019/07/17 22:42 PDT    5.42   5.59    3  224    7  58.3  58.6 1013.1 -9.9 -9.999 -99.9 -99.99 -9.99
2019/07/17 22:48 PDT    5.49   5.65    7  252   12  58.3  58.6 1013.1 -9.9 -9.999 -99.9 -99.99 -9.99
2019/07/17 22:54 PDT    5.55   5.77    6  216   12  58.3  58.6 1013.1 -9.9 -9.999 -99.9 -99.99 -9.99
2019/07/17 23:00 PDT    5.61   5.83    8  242   12  58.3  58.6 1013.1 -9.9 -9.999 -99.9 -99.99 -9.99
2019/07/17 23:06 PDT    5.67   5.88    7  240   11  58.3  58.6 1013.1 -9.9 -9.999 -99.9 -99.99 -9.99
2019/07/17 23:12 PDT    5.72   5.92    8  246   13  58.3  58.6 1013.2 -9.9 -9.999 -99.9 -99.99 -9.99
2019/07/17 23:18 PDT    5.77   5.98    6  240   12  58.1  58.6 1013.1 -9.9 -9.999 -99.9 -99.99 -9.99
2019/07/17 23:24 PDT    5.82   6.01    6  238   12  58.1  58.1 1013.1 -9.9 -9.999 -99.9 -99.99 -9.99
2019/07/17 23:30 PDT    5.86   6.06    7  249   10  58.1  57.9 1013.1 -9.9 -9.999 -99.9 -99.99 -9.99
2019/07/17 23:36 PDT    5.90   6.13    7  234   10  58.1  57.7 1013.0 -9.9 -9.999 -99.9 -99.99 -9.99
2019/07/17 23:42 PDT    5.94   6.18    6  239   12  58.1  57.4 1013.0 -9.9 -9.999 -99.9 -99.99 -9.99
2019/07/17 23:48 PDT    5.97   6.22    8  232   13  58.1  57.0 1013.0 -9.9 -9.999 -99.9 -99.99 -9.99
2019/07/17 23:54 PDT    6.00   6.28    7  242   12  58.1  57.0 1013.0 -9.9 -9.999 -99.9 -99.99 -9.99
2019/07/18 00:00 PDT    6.02   6.29    8  246   14  57.9  57.0 1013.1 -9.9 -9.999 -99.9 -99.99 -9.99
2019/07/18 00:06 PDT    6.04   6.28   10  250   15  57.9  57.0 1013.1 -9.9 -9.999 -99.9 -99.99 -9.99
2019/07/18 00:12 PDT    6.06   6.30    4  224   11  57.9  57.0 1013.1 -9.9 -9.999 -99.9 -99.99 -9.99
2019/07/18 00:18 PDT    6.07   6.34    5  241    9  57.7  57.0 1013.2 -9.9 -9.999 -99.9 -99.99 -9.99
2019/07/18 00:24 PDT    6.07   6.35    5  244    9  57.7  57.0 1013.2 -9.9 -9.999 -99.9 -99.99 -9.99
2019/07/18 00:30 PDT    6.07   6.34    6  233   12  57.6  57.0 1013.2 -9.9 -9.999 -99.9 -99.99 -9.99
2019/07/18 00:36 PDT    6.06   6.33    5  240   14  57.6  57.2 1013.3 -9.9 -9.999 -99.9 -99.99 -9.99
2019/07/18 00:42 PDT    6.04   6.29    7  219   12  57.6  57.2 1013.4 -9.9 -9.999 -99.9 -99.99 -9.99
2019/07/18 00:48 PDT    6.02   6.29    5  235   12  57.7  57.2 1013.4 -9.9 -9.999 -99.9 -99.99 -9.99
2019/07/18 00:54 PDT    6.00   6.29    8  232   14  57.7  57.2 1013.5 -9.9 -9.999 -99.9 -99.99 -9.99
2019/07/18 01:00 PDT    5.96   6.25    5  219   11  57.7  57.2 1013.5 -9.9 -9.999 -99.9 -99.99 -9.99
2019/07/18 01:06 PDT    5.92   6.19    5  228   10  57.7  57.2 1013.5 -9.9 -9.999 -99.9 -99.99 -9.99
2019/07/18 01:12 PDT    5.88   6.15    7  238   13  57.6  57.2 1013.5 -9.9 -9.999 -99.9 -99.99 -9.99
2019/07/18 01:18 PDT    5.83   6.11    5  246   13  57.4  57.0 1013.6 -9.9 -9.999 -99.9 -99.99 -9.99
2019/07/18 01:24 PDT    5.77   6.06    8  239   15  57.4  57.0 1013.5 -9.9 -9.999 -99.9 -99.99 -9.99
2019/07/18 01:30 PDT    5.70   6.01    9  241   11  57.2  57.0 1013.6 -9.9 -9.999 -99.9 -99.99 -9.99
2019/07/18 01:36 PDT    5.63   5.92    6  220   12  57.2  57.0 1013.5 -9.9 -9.999 -99.9 -99.99 -9.99
2019/07/18 01:42 PDT    5.56   5.84    6  239   11  57.2  57.0 1013.5 -9.9 -9.999 -99.9 -99.99 -9.99
2019/07/18 01:48 PDT    5.47   5.75    6  236   14  57.2  57.0 1013.5 -9.9 -9.999 -99.9 -99.99 -9.99
2019/07/18 01:54 PDT    5.38   5.65    7  224   11  57.2  57.0 1013.4 -9.9 -9.999 -99.9 -99.99 -9.99
2019/07/18 02:00 PDT    5.29   5.54    7  251   15  57.2  57.0 1013.3 -9.9 -9.999 -99.9 -99.99 -9.99
2019/07/18 02:06 PDT    5.18   5.47    8  224   15  57.0  57.0 1013.4 -9.9 -9.999 -99.9 -99.99 -9.99
2019/07/18 02:12 PDT    5.08   5.39    6  236   12  57.0  57.0 1013.4 -9.9 -9.999 -99.9 -99.99 -9.99
2019/07/18 02:18 PDT    4.96   5.27    8  235   12  57.0  57.0 1013.5 -9.9 -9.999 -99.9 -99.99 -9.99
2019/07/18 02:24 PDT    4.84   5.15    7  240   12  57.0  57.0 1013.4 -9.9 -9.999 -99.9 -99.99 -9.99
2019/07/18 02:30 PDT    4.72   4.99   10  238   17  56.8  57.0 1013.2 -9.9 -9.999 -99.9 -99.99 -9.99
2019/07/18 02:36 PDT    4.59   4.83    9  243   14  56.8  57.0 1013.2 -9.9 -9.999 -99.9 -99.99 -9.99
2019/07/18 02:42 PDT    4.46   4.69   10  235   15  56.8  57.0 1013.2 -9.9 -9.999 -99.9 -99.99 -9.99
2019/07/18 02:48 PDT    4.32   4.56    7  233   16  56.7  57.0 1013.2 -9.9 -9.999 -99.9 -99.99 -9.99
2019/07/18 02:54 PDT    4.18   4.39    6  246   12  56.7  57.0 1013.3 -9.9 -9.999 -99.9 -99.99 -9.99
2019/07/18 03:00 PDT    4.04   4.26    8  234   12  56.7  57.0 1013.2 -9.9 -9.999 -99.9 -99.99 -9.99
2019/07/18 03:06 PDT    3.89   4.14    6  237   16  56.5  57.0 1013.2 -9.9 -9.999 -99.9 -99.99 -9.99
2019/07/18 03:12 PDT    3.74   3.98    7  250   13  56.5  57.0 1013.2 -9.9 -9.999 -99.9 -99.99 -9.99
2019/07/18 03:18 PDT    3.59   3.81    9  235   17  56.5  57.0 1013.3 -9.9 -9.999 -99.9 -99.99 -9.99
2019/07/18 03:24 PDT    3.44   3.63    4  246   11  56.3  57.0 1013.3 -9.9 -9.999 -99.9 -99.99 -9.99
2019/07/18 03:30 PDT    3.28   3.45    9  243   14  56.3  57.0 1013.3 -9.9 -9.999 -99.9 -99.99 -9.99
2019/07/18 03:36 PDT    3.12   3.24    6  240   11  56.3  57.0 1013.3 -9.9 -9.999 -99.9 -99.99 -9.99
2019/07/18 03:42 PDT    2.97   3.06    8  241   12  56.3  57.0 1013.2 -9.9 -9.999 -99.9 -99.99 -9.99
2019/07/18 03:48 PDT    2.81   2.94    6  231   14  56.3  57.0 1013.2 -9.9 -9.999 -99.9 -99.99 -9.99
2019/07/18 03:54 PDT    2.65   2.80    8  226   12  56.3  56.8 1013.2 -9.9 -9.999 -99.9 -99.99 -9.99
2019/07/18 04:00 PDT    2.49   2.64    6  246   11  56.3  56.8 1013.2 -9.9 -9.999 -99.9 -99.99 -9.99
2019/07/18 04:06 PDT    2.33   2.49    9  243   14  56.3  56.8 1013.2 -9.9 -9.999 -99.9 -99.99 -9.99
2019/07/18 04:12 PDT    2.17   2.31    5  260   17  56.3  56.8 1013.2 -9.9 -9.999 -99.9 -99.99 -9.99
2019/07/18 04:18 PDT    2.02   2.14    5  220    9  56.3  56.8 1013.2 -9.9 -9.999 -99.9 -99.99 -9.99
2019/07/18 04:24 PDT    1.87   1.98    7  220   11  56.3  56.8 1013.3 -9.9 -9.999 -99.9 -99.99 -9.99
2019/07/18 04:30 PDT    1.72   1.85    6  241   11  56.3  56.8 1013.2 -9.9 -9.999 -99.9 -99.99 -9.99
2019/07/18 04:36 PDT    1.57   1.69    5  241   11  56.3  56.8 1013.2 -9.9 -9.999 -99.9 -99.99 -9.99
2019/07/18 04:42 PDT    1.42   1.54    4  258    8  56.1  56.8 1013.3 -9.9 -9.999 -99.9 -99.99 -9.99
2019/07/18 04:48 PDT    1.28   1.42    8  236   12  56.1  56.8 1013.4 -9.9 -9.999 -99.9 -99.99 -9.99
2019/07/18 04:54 PDT    1.14   1.32    5  234    9  55.9  56.8 1013.4 -9.9 -9.999 -99.9 -99.99 -9.99
2019/07/18 05:00 PDT    1.01   1.22    6  265   14  55.6  56.8 1013.4 -9.9 -9.999 -99.9 -99.99 -9.99
2019/07/18 05:06 PDT    0.88   1.13    9  249   11  55.4  56.8 1013.3 -9.9 -9.999 -99.9 -99.99 -9.99
2019/07/18 05:12 PDT    0.76   1.03    8  273   10  55.4  56.8 1013.3 -9.9 -9.999 -99.9 -99.99 -9.99
2019/07/18 05:18 PDT    0.64   0.94    9  258   14  55.2  56.8 1013.3 -9.9 -9.999 -99.9 -99.99 -9.99
2019/07/18 05:24 PDT    0.52   0.81   10  248   14  55.2  56.8 1013.2 -9.9 -9.999 -99.9 -99.99 -9.99
2019/07/18 05:30 PDT    0.41   0.74   10  237   15  55.2  56.8 1013.3 -9.9 -9.999 -99.9 -99.99 -9.99
2019/07/18 05:36 PDT    0.31   0.64    7  244   15  55.0  56.8 1013.4 -9.9 -9.999 -99.9 -99.99 -9.99
2019/07/18 05:42 PDT    0.21   0.52    6  237   15  55.2  56.8 1013.5 -9.9 -9.999 -99.9 -99.99 -9.99
2019/07/18 05:48 PDT    0.12   0.38    5  235   11  55.2  56.8 1013.5 -9.9 -9.999 -99.9 -99.99 -9.99
2019/07/18 05:54 PDT    0.03   0.31    5  230   11  55.2  56.8 1013.5 -9.9 -9.999 -99.9 -99.99 -9.99
2019/07/18 06:00 PDT   -0.05   0.19    5  247   10  55.2  56.8 1013.5 -9.9 -9.999 -99.9 -99.99 -9.99
2019/07/18 06:06 PDT   -0.12   0.10    4  242    9  55.4  56.8 1013.5 -9.9 -9.999 -99.9 -99.99 -9.99
2019/07/18 06:12 PDT   -0.19   0.04    6  246   10  55.4  56.8 1013.5 -9.9 -9.999 -99.9 -99.99 -9.99
2019/07/18 06:18 PDT   -0.25  -0.05    5  233    8  55.4  56.8 1013.5 -9.9 -9.999 -99.9 -99.99 -9.99
2019/07/18 06:24 PDT   -0.30  -0.10    6  234   11  55.4  56.8 1013.5 -9.9 -9.999 -99.9 -99.99 -9.99
2019/07/18 06:30 PDT   -0.35  -0.16    7  240   13  55.6  56.8 1013.5 -9.9 -9.999 -99.9 -99.99 -9.99
2019/07/18 06:36 PDT   -0.39  -0.22    8  234   15  55.4  56.8 1013.6 -9.9 -9.999 -99.9 -99.99 -9.99
2019/07/18 06:42 PDT   -0.43  -0.22    8  247   14  55.4  56.8 1013.6 -9.9 -9.999 -99.9 -99.99 -9.99
2019/07/18 06:48 PDT   -0.46  -0.23    6  257   11  55.4  56.8 1013.6 -9.9 -9.999 -99.9 -99.99 -9.99
2019/07/18 06:54 PDT   -0.48  -0.25    7  242   15  55.4  56.8 1013.6 -9.9 -9.999 -99.9 -99.99 -9.99
2019/07/18 07:00 PDT   -0.50  -0.29    7  255   17  55.6  57.2 1013.7 -9.9 -9.999 -99.9 -99.99 -9.99
2019/07/18 07:06 PDT   -0.51  -0.31    9  238   16  55.9  57.6 1013.8 -9.9 -9.999 -99.9 -99.99 -9.99
2019/07/18 07:12 PDT   -0.52  -0.29    8  227   13  55.9  57.7 1013.9 -9.9 -9.999 -99.9 -99.99 -9.99
2019/07/18 07:18 PDT   -0.52  -0.28    6  240   13  55.9  57.9 1013.9 -9.9 -9.999 -99.9 -99.99 -9.99
2019/07/18 07:24 PDT   -0.51  -0.25    5  226    9  55.9  57.9 1013.9 -9.9 -9.999 -99.9 -99.99 -9.99
2019/07/18 07:30 PDT   -0.50  -0.22    6  231   13  55.9  58.1 1013.9 -9.9 -9.999 -99.9 -99.99 -9.99
2019/07/18 07:36 PDT   -0.48  -0.23    7  239   14  55.8  58.5 1014.0 -9.9 -9.999 -99.9 -99.99 -9.99
2019/07/18 07:42 PDT   -0.46  -0.22    7  241   11  55.8  58.8 1014.0 -9.9 -9.999 -99.9 -99.99 -9.99
2019/07/18 07:48 PDT   -0.43  -0.21    5  219   12  55.9  58.8 1014.0 -9.9 -9.999 -99.9 -99.99 -9.99
2019/07/18 07:54 PDT   -0.40  -0.21    8  245   12  55.9  59.0 1014.0 -9.9 -9.999 -99.9 -99.99 -9.99
2019/07/18 08:00 PDT   -0.36  -0.16    6  234   14  55.9  59.2 1014.1 -9.9 -9.999 -99.9 -99.99 -9.99
2019/07/18 08:06 PDT   -0.32  -0.13    3  237   10  56.1  59.2 1014.2 -9.9 -9.999 -99.9 -99.99 -9.99
2019/07/18 08:12 PDT   -0.27  -0.11    8  201   15  55.9  59.4 1014.3 -9.9 -9.999 -99.9 -99.99 -9.99
2019/07/18 08:18 PDT   -0.22  -0.05    6  210   12  56.1  59.4 1014.3 -9.9 -9.999 -99.9 -99.99 -9.99
2019/07/18 08:24 PDT   -0.16  -0.01    6  227   12  55.9  59.5 1014.3 -9.9 -9.999 -99.9 -99.99 -9.99
2019/07/18 08:30 PDT   -0.10   0.03    7  214   13  55.9  59.5 1014.3 -9.9 -9.999 -99.9 -99.99 -9.99
2019/07/18 08:36 PDT   -0.03   0.14    7  231   14  56.1  59.4 1014.3 -9.9 -9.999 -99.9 -99.99 -9.99
2019/07/18 08:42 PDT    0.04   0.22    7  219   11  56.3  59.4 1014.4 -9.9 -9.999 -99.9 -99.99 -9.99
2019/07/18 08:48 PDT    0.11   0.34    4  234    8  56.3  59.7 1014.4 -9.9 -9.999 -99.9 -99.99 -9.99
2019/07/18 08:54 PDT    0.19   0.41    6  246   11  56.1  60.1 1014.4 -9.9 -9.999 -99.9 -99.99 -9.99
2019/07/18 09:00 PDT    0.27   0.46    8  252   12  55.8  60.4 1014.5 -9.9 -9.999 -99.9 -99.99 -9.99
2019/07/18 09:06 PDT    0.35   0.50    7  236   13  55.8  60.8 1014.6 -9.9 -9.999 -99.9 -99.99 -9.99
2019/07/18 09:12 PDT    0.44   0.58 -999 -999 -999 -99.9 -99.9 -999.9 -9.9 -9.999 -99.9 -99.99 -9.99
2019/07/18 09:18 PDT    0.53   0.67    9  255   14  55.6  61.0 1014.6 -9.9 -9.999 -99.9 -99.99 -9.99
2019/07/18 09:24 PDT    0.62   0.80    6  245   11  55.6  61.0 1014.6 -9.9 -9.999 -99.9 -99.99 -9.99
2019/07/18 09:30 PDT    0.72   0.89    8  257   14  55.6  61.0 1014.6 -9.9 -9.999 -99.9 -99.99 -9.99
2019/07/18 09:36 PDT    0.82   1.00    4  252   11  55.8  61.0 1014.6 -9.9 -9.999 -99.9 -99.99 -9.99
2019/07/18 09:42 PDT    0.91   1.06    4  229    9  55.9  61.2 1014.5 -9.9 -9.999 -99.9 -99.99 -9.99
2019/07/18 09:48 PDT    1.01   1.14    5  242   13  56.1  61.2 1014.5 -9.9 -9.999 -99.9 -99.99 -9.99
2019/07/18 09:54 PDT    1.12   1.27   10  246   13  56.1  61.2 1014.5 -9.9 -9.999 -99.9 -99.99 -9.99
2019/07/18 10:00 PDT    1.22   1.38   10  227   13  56.5  61.2 1014.5 -9.9 -9.999 -99.9 -99.99 -9.99
2019/07/18 10:06 PDT    1.33   1.54    8  229   16  56.5  61.2 1014.5 -9.9 -9.999 -99.9 -99.99 -9.99
2019/07/18 10:12 PDT    1.43   1.68   12  230   20  56.5  61.2 1014.6 -9.9 -9.999 -99.9 -99.99 -9.99
2019/07/18 10:18 PDT    1.54   1.77    8  225   15  56.7  61.3 1014.6 -9.9 -9.999 -99.9 -99.99 -9.99
2019/07/18 10:24 PDT    1.65   1.86    7  222   14  56.7  61.3 1014.6 -9.9 -9.999 -99.9 -99.99 -9.99
2019/07/18 10:30 PDT    1.76   1.97    8  218   16  56.8  61.3 1014.6 -9.9 -9.999 -99.9 -99.99 -9.99
2019/07/18 10:36 PDT    1.87   2.07    7  228   14  56.8  61.3 1014.6 -9.9 -9.999 -99.9 -99.99 -9.99
2019/07/18 10:42 PDT    1.98   2.22   11  220   19  57.0  61.2 1014.6 -9.9 -9.999 -99.9 -99.99 -9.99
2019/07/18 10:48 PDT    2.09   2.36   11  222   17  57.0  61.2 1014.6 -9.9 -9.999 -99.9 -99.99 -9.99
2019/07/18 10:54 PDT    2.20   2.48   11  222   19  57.2  61.2 1014.7 -9.9 -9.999 -99.9 -99.99 -9.99
2019/07/18 11:00 PDT    2.31   2.56   12  220   18  57.2  61.2 1014.7 -9.9 -9.999 -99.9 -99.99 -9.99
2019/07/18 11:06 PDT    2.42   2.67    6  237   15  57.6  61.2 1014.7 -9.9 -9.999 -99.9 -99.99 -9.99
2019/07/18 11:12 PDT    2.53   2.77   10  233   16  57.4  61.2 1014.6 -9.9 -9.999 -99.9 -99.99 -9.99
2019/07/18 11:18 PDT    2.64   2.88   10  217   17  57.6  61.2 1014.6 -9.9 -9.999 -99.9 -99.99 -9.99
2019/07/18 11:24 PDT    2.75   2.98    8  227   16  57.7  61.2 1014.6 -9.9 -9.999 -99.9 -99.99 -9.99
2019/07/18 11:30 PDT    2.86   3.06   14  236   18  57.7  61.2 1014.6 -9.9 -9.999 -99.9 -99.99 -9.99
2019/07/18 11:36 PDT    2.96   3.14   11  234   17  57.9  61.2 1014.6 -9.9 -9.999 -99.9 -99.99 -9.99
2019/07/18 11:42 PDT    3.07   3.25   10  233   19  58.1  61.2 1014.6 -9.9 -9.999 -99.9 -99.99 -9.99
2019/07/18 11:48 PDT    3.18   3.36    9  225   13  58.3  61.2 1014.6 -9.9 -9.999 -99.9 -99.99 -9.99
2019/07/18 11:54 PDT    3.28   3.50    9  231   17  58.3  61.2 1014.5 -9.9 -9.999 -99.9 -99.99 -9.99
2019/07/18 12:00 PDT    3.39   3.64    8  235   16  58.6  61.3 1014.5 -9.9 -9.999 -99.9 -99.99 -9.99
2019/07/18 12:06 PDT    3.49   3.76   10  215   15  59.0  61.3 1014.5 -9.9 -9.999 -99.9 -99.99 -9.99
2019/07/18 12:12 PDT    3.59   3.86    7  249   15  59.2  60.8 1014.5 -9.9 -9.999 -99.9 -99.99 -9.99
2019/07/18 12:18 PDT    3.68   3.95    9  226   16  59.2  60.4 1014.6 -9.9 -9.999 -99.9 -99.99 -9.99
2019/07/18 12:24 PDT    3.78   4.04    7  230   15  59.7  60.3 1014.5 -9.9 -9.999 -99.9 -99.99 -9.99
2019/07/18 12:30 PDT    3.87   4.12    8  248   16  59.7  59.9 1014.4 -9.9 -9.999 -99.9 -99.99 -9.99
2019/07/18 12:36 PDT    3.96   4.18    9  235   14  59.9  59.7 1014.4 -9.9 -9.999 -99.9 -99.99 -9.99
2019/07/18 12:42 PDT    4.05   4.29   14  222   17  59.7  59.5 1014.4 -9.9 -9.999 -99.9 -99.99 -9.99
2019/07/18 12:48 PDT    4.13   4.37   11  242   17  60.4  59.5 1014.4 -9.9 -9.999 -99.9 -99.99 -9.99
2019/07/18 12:54 PDT    4.21   4.44   11  225   18  60.3  59.5 1014.4 -9.9 -9.999 -99.9 -99.99 -9.99
2019/07/18 13:00 PDT    4.29   4.53    7  242   12  60.6  59.5 1014.3 -9.9 -9.999 -99.9 -99.99 -9.99
2019/07/18 13:06 PDT    4.36   4.60    8  235   17  61.0  59.5 1014.2 -9.9 -9.999 -99.9 -99.99 -9.99
2019/07/18 13:12 PDT    4.43   4.67    8  236   16  60.4  59.5 1014.3 -9.9 -9.999 -99.9 -99.99 -9.99
2019/07/18 13:18 PDT    4.50   4.73    8  247   17  60.4  59.5 1014.3 -9.9 -9.999 -99.9 -99.99 -9.99
2019/07/18 13:24 PDT    4.56   4.77   12  233   19  60.3  59.5 1014.2 -9.9 -9.999 -99.9 -99.99 -9.99
2019/07/18 13:30 PDT    4.61   4.83   11  236   18  60.1  59.5 1014.3 -9.9 -9.999 -99.9 -99.99 -9.99
2019/07/18 13:36 PDT    4.66   4.88   11  248   16  60.1  59.5 1014.2 -9.9 -9.999 -99.9 -99.99 -9.99
2019/07/18 13:42 PDT    4.71   4.96    9  233   18  59.7  59.5 1014.3 -9.9 -9.999 -99.9 -99.99 -9.99
2019/07/18 13:48 PDT    4.75   4.99 -999 -999 -999 -99.9 -99.9 -999.9 -9.9 -9.999 -99.9 -99.99 -9.99
2019/07/18 13:54 PDT    4.79   5.02    9  241   17  59.7  59.5 1014.1 -9.9 -9.999 -99.9 -99.99 -9.99
2019/07/18 14:00 PDT    4.82   5.06   12  243   19  59.7  59.5 1014.1 -9.9 -9.999 -99.9 -99.99 -9.99
2019/07/18 14:06 PDT    4.84   5.08   13  252   21  59.5  59.5 1014.1 -9.9 -9.999 -99.9 -99.99 -9.99
2019/07/18 14:12 PDT    4.86   5.09    9  235   18  59.7  59.5 1014.1 -9.9 -9.999 -99.9 -99.99 -9.99
2019/07/18 14:18 PDT    4.88   5.10    9  237   16  59.5  59.5 1014.0 -9.9 -9.999 -99.9 -99.99 -9.99
2019/07/18 14:24 PDT    4.89   5.09   10  236   18  59.2  59.5 1014.0 -9.9 -9.999 -99.9 -99.99 -9.99
2019/07/18 14:30 PDT    4.89   5.10   14  241   21  59.0  59.5 1013.9 -9.9 -9.999 -99.9 -99.99 -9.99
2019/07/18 14:36 PDT    4.89   5.11    9  249   16  58.6  59.5 1013.9 -9.9 -9.999 -99.9 -99.99 -9.99
2019/07/18 14:42 PDT    4.89   5.08    8  246   17  58.3  59.5 1013.9 -9.9 -9.999 -99.9 -99.99 -9.99
2019/07/18 14:48 PDT    4.88   5.12    5  252   14  58.6  59.5 1013.9 -9.9 -9.999 -99.9 -99.99 -9.99
2019/07/18 14:54 PDT    4.86   5.11    6  242   14  58.8  59.4 1013.9 -9.9 -9.999 -99.9 -99.99 -9.99
2019/07/18 15:00 PDT    4.84   5.10    5  246   15  58.8  59.4 1013.9 -9.9 -9.999 -99.9 -99.99 -9.99
2019/07/18 15:06 PDT    4.82   5.06    6  248   15  58.8  59.0 1013.9 -9.9 -9.999 -99.9 -99.99 -9.99
2019/07/18 15:12 PDT    4.79   5.05    8  248   19  59.0  59.0 1013.8 -9.9 -9.999 -99.9 -99.99 -9.99
2019/07/18 15:18 PDT    4.76   5.03   13  240   18  58.8  59.2 1013.7 -9.9 -9.999 -99.9 -99.99 -9.99
2019/07/18 15:24 PDT    4.72   4.99   11  243   19  59.0  59.2 1013.7 -9.9 -9.999 -99.9 -99.99 -9.99
2019/07/18 15:30 PDT    4.68   4.93   11  244   18  59.0  59.4 1013.6 -9.9 -9.999 -99.9 -99.99 -9.99
2019/07/18 15:36 PDT    4.64   4.90   12  241   19  59.0  59.4 1013.6 -9.9 -9.999 -99.9 -99.99 -9.99
2019/07/18 15:42 PDT    4.59   4.84   12  235   19  59.2  59.2 1013.5 -9.9 -9.999 -99.9 -99.99 -9.99
2019/07/18 15:48 PDT    4.54   4.81    9  243   25  59.2  59.2 1013.5 -9.9 -9.999 -99.9 -99.99 -9.99
2019/07/18 15:54 PDT    4.49   4.76   11  237   18  59.4  59.0 1013.4 -9.9 -9.999 -99.9 -99.99 -9.99
2019/07/18 16:00 PDT    4.43   4.67   11  239   18  59.5  59.0 1013.3 -9.9 -9.999 -99.9 -99.99 -9.99
2019/07/18 16:06 PDT    4.38   4.59    9  236   16  60.1  59.0 1013.2 -9.9 -9.999 -99.9 -99.99 -9.99
2019/07/18 16:12 PDT    4.32   4.55   14  234   20  60.1  59.0 1013.1 -9.9 -9.999 -99.9 -99.99 -9.99
2019/07/18 16:18 PDT    4.25   4.53   14  219   24  60.1  59.0 1013.0 -9.9 -9.999 -99.9 -99.99 -9.99
2019/07/18 16:24 PDT    4.19   4.50   13  228   23  59.7  59.0 1013.0 -9.9 -9.999 -99.9 -99.99 -9.99
2019/07/18 16:30 PDT    4.13   4.47   15  245   24  58.6  59.0 1013.0 -9.9 -9.999 -99.9 -99.99 -9.99
2019/07/18 16:36 PDT    4.06   4.37   14  239   23  57.7  59.0 1013.0 -9.9 -9.999 -99.9 -99.99 -9.99
2019/07/18 16:42 PDT    4.00   4.29   11  242   21  57.9  59.0 1013.0 -9.9 -9.999 -99.9 -99.99 -9.99
2019/07/18 16:48 PDT    3.93   4.23   11  238   21  58.1  59.0 1013.1 -9.9 -9.999 -99.9 -99.99 -9.99
2019/07/18 16:54 PDT    3.87   4.18   11  242   17  58.5  59.0 1013.1 -9.9 -9.999 -99.9 -99.99 -9.99
2019/07/18 17:00 PDT    3.80   4.11   10  236   16  58.5  59.0 1013.1 -9.9 -9.999 -99.9 -99.99 -9.99
2019/07/18 17:06 PDT    3.74   4.04   11  233   17  58.6  59.0 1013.1 -9.9 -9.999 -99.9 -99.99 -9.99
2019/07/18 17:12 PDT    3.67   3.97   10  234   18  58.8  59.2 1013.0 -9.9 -9.999 -99.9 -99.99 -9.99
2019/07/18 17:18 PDT    3.61   3.90   11  244   20  58.6  59.0 1013.0 -9.9 -9.999 -99.9 -99.99 -9.99
2019/07/18 17:24 PDT    3.55   3.81   13  238   22  58.6  59.0 1012.8 -9.9 -9.999 -99.9 -99.99 -9.99
2019/07/18 17:30 PDT    3.49   3.75   12  234   19  58.5  59.0 1012.9 -9.9 -9.999 -99.9 -99.99 -9.99
2019/07/18 17:36 PDT    3.44   3.68   11  232   20  57.9  59.2 1012.9 -9.9 -9.999 -99.9 -99.99 -9.99
2019/07/18 17:42 PDT    3.38   3.59   10  231   18  57.9  59.2 1012.8 -9.9 -9.999 -99.9 -99.99 -9.99
2019/07/18 17:48 PDT    3.33   3.52   10  236   15  57.9  58.8 1012.8 -9.9 -9.999 -99.9 -99.99 -9.99
2019/07/18 17:54 PDT    3.29   3.49   10  239   15  57.9  58.8 1012.7 -9.9 -9.999 -99.9 -99.99 -9.99
2019/07/18 18:00 PDT    3.24   3.44   12  242   17  57.9  58.6 1012.7 -9.9 -9.999 -99.9 -99.99 -9.99
2019/07/18 18:06 PDT    3.20   3.39   13  238   19  57.7  58.6 1012.6 -9.9 -9.999 -99.9 -99.99 -9.99
2019/07/18 18:12 PDT    3.16   3.32   14  238   20  57.6  58.6 1012.6 -9.9 -9.999 -99.9 -99.99 -9.99
2019/07/18 18:18 PDT    3.12   3.27   12  243   20  57.4  58.5 1012.6 -9.9 -9.999 -99.9 -99.99 -9.99
2019/07/18 18:24 PDT    3.09   3.25   12  237   20  57.4  58.6 1012.6 -9.9 -9.999 -99.9 -99.99 -9.99
2019/07/18 18:30 PDT    3.06   3.19   11  235   18  57.4  58.5 1012.6 -9.9 -9.999 -99.9 -99.99 -9.99
2019/07/18 18:36 PDT    3.04   3.17   10  240   17  57.4  58.6 1012.5 -9.9 -9.999 -99.9 -99.99 -9.99
2019/07/18 18:42 PDT    3.02   3.16    8  240   17  57.6  58.8 1012.5 -9.9 -9.999 -99.9 -99.99 -9.99
2019/07/18 18:48 PDT    3.00   3.13   11  243   18  57.6  58.6 1012.5 -9.9 -9.999 -99.9 -99.99 -9.99
2019/07/18 18:54 PDT    2.99   3.12   11  240   16  57.2  58.8 1012.5 -9.9 -9.999 -99.9 -99.99 -9.99
2019/07/18 19:00 PDT    2.98   3.11   10  231   17  57.0  58.8 1012.5 -9.9 -9.999 -99.9 -99.99 -9.99
2019/07/18 19:06 PDT    2.97   3.11    9  240   14  57.0  59.0 1012.5 -9.9 -9.999 -99.9 -99.99 -9.99
2019/07/18 19:12 PDT    2.97   3.12    7  253   17  57.0  59.0 1012.4 -9.9 -9.999 -99.9 -99.99 -9.99
2019/07/18 19:18 PDT    2.97   3.12   10  247   17  57.0  59.2 1012.3 -9.9 -9.999 -99.9 -99.99 -9.99
2019/07/18 19:24 PDT    2.98   3.14    9  253   19  57.0  59.2 1012.3 -9.9 -9.999 -99.9 -99.99 -9.99
2019/07/18 19:30 PDT    2.99   3.14    9  247   18  57.2  59.2 1012.2 -9.9 -9.999 -99.9 -99.99 -9.99
2019/07/18 19:36 PDT    3.00   3.18   11  238   19  57.2  59.2 1012.2 -9.9 -9.999 -99.9 -99.99 -9.99
2019/07/18 19:42 PDT    3.02   3.19    8  246   17  57.4  59.2 1012.2 -9.9 -9.999 -99.9 -99.99 -9.99
2019/07/18 19:48 PDT    3.04   3.23   12  235   17  57.4  59.0 1012.2 -9.9 -9.999 -99.9 -99.99 -9.99
2019/07/18 19:54 PDT    3.07   3.27   11  234   18  57.4  59.0 1012.2 -9.9 -9.999 -99.9 -99.99 -9.99
2019/07/18 20:00 PDT    3.10   3.31    8  241   16  57.4  59.0 1012.2 -9.9 -9.999 -99.9 -99.99 -9.99
2019/07/18 20:06 PDT    3.13   3.32   10  234   14  57.6  59.0 1012.3 -9.9 -9.999 -99.9 -99.99 -9.99
2019/07/18 20:12 PDT    3.16   3.36   10  249   16  57.6  59.0 1012.3 -9.9 -9.999 -99.9 -99.99 -9.99
2019/07/18 20:18 PDT    3.20   3.43   11  238   16  57.6  59.0 1012.3 -9.9 -9.999 -99.9 -99.99 -9.99
2019/07/18 20:24 PDT    3.24   3.47    9  235   18  57.4  59.0 1012.4 -9.9 -9.999 -99.9 -99.99 -9.99
2019/07/18 20:30 PDT    3.29   3.52    8  223   12  57.4  59.0 1012.4 -9.9 -9.999 -99.9 -99.99 -9.99
2019/07/18 20:36 PDT    3.34   3.59    6  223   12  57.4  59.0 1012.5 -9.9 -9.999 -99.9 -99.99 -9.99
2019/07/18 20:42 PDT    3.39   3.61    7  236   12  57.2  59.2 1012.5 -9.9 -9.999 -99.9 -99.99 -9.99
2019/07/18 20:48 PDT    3.44   3.64    7  234   13  57.2  59.2 1012.5 -9.9 -9.999 -99.9 -99.99 -9.99
2019/07/18 20:54 PDT    3.50   3.72    3  250   12  57.2  59.0 1012.6 -9.9 -9.999 -99.9 -99.99 -9.99
2019/07/18 21:00 PDT    3.56   3.78    5  215    9  57.2  58.8 1012.6 -9.9 -9.999 -99.9 -99.99 -9.99
2019/07/18 21:06 PDT    3.62   3.85 -999 -999 -999 -99.9 -99.9 -999.9 -9.9 -9.999 -99.9 -99.99 -9.99
2019/07/18 21:12 PDT    3.69   3.95    4  243   11  57.2  58.5 1012.7 -9.9 -9.999 -99.9 -99.99 -9.99
2019/07/18 21:18 PDT    3.76   4.01    5  231   10  57.2  58.5 1012.7 -9.9 -9.999 -99.9 -99.99 -9.99
2019/07/18 21:24 PDT    3.82   4.08    5  218   10  57.2  58.3 1012.8 -9.9 -9.999 -99.9 -99.99 -9.99
2019/07/18 21:30 PDT    3.89   4.17    4  213    7  57.2  58.3 1012.9 -9.9 -9.999 -99.9 -99.99 -9.99
2019/07/18 21:36 PDT    3.97   4.22    2  235    7  57.2  58.3 1012.9 -9.9 -9.999 -99.9 -99.99 -9.99
2019/07/18 21:42 PDT    4.04   4.31    2  233    5  57.2  58.3 1012.9 -9.9 -9.999 -99.9 -99.99 -9.99
2019/07/18 21:48 PDT    4.11   4.39    6  241    9  57.0  58.3 1012.9 -9.9 -9.999 -99.9 -99.99 -9.99
2019/07/18 21:54 PDT    4.19   4.46    7  226   10  57.0  58.3 1012.9 -9.9 -9.999 -99.9 -99.99 -9.99
2019/07/18 22:00 PDT    4.27   4.55    7  224   11  57.0  58.3 1012.9 -9.9 -9.999 -99.9 -99.99 -9.99
2019/07/18 22:06 PDT    4.34   4.66    8  229   13  57.2  58.3 1012.9 -9.9 -9.999 -99.9 -99.99 -9.99
2019/07/18 22:12 PDT    4.42   4.73    5  222    9  57.2  58.3 1012.9 -9.9 -9.999 -99.9 -99.99 -9.99
2019/07/18 22:18 PDT    4.49   4.79    6  222    9  57.2  58.5 1012.9 -9.9 -9.999 -99.9 -99.99 -9.99
2019/07/18 22:24 PDT    4.57   4.86    7  233   11  57.2  58.5 1012.8 -9.9 -9.999 -99.9 -99.99 -9.99
2019/07/18 22:30 PDT    4.65   4.91    6  226   10  57.2  58.5 1012.8 -9.9 -9.999 -99.9 -99.99 -9.99
2019/07/18 22:36 PDT    4.72   5.00    5  230   13  57.2  58.5 1012.7 -9.9 -9.999 -99.9 -99.99 -9.99
2019/07/18 22:42 PDT    4.79   5.09    5  219    9  57.4  58.5 1012.7 -9.9 -9.999 -99.9 -99.99 -9.99
2019/07/18 22:48 PDT    4.87   5.18    5  217    9  57.4  58.5 1012.7 -9.9 -9.999 -99.9 -99.99 -9.99
2019/07/18 22:54 PDT    4.94   5.25    6  243    9  57.4  58.5 1012.7 -9.9 -9.999 -99.9 -99.99 -9.99
2019/07/18 23:00 PDT    5.01   5.31    9  220   13  57.4  58.5 1012.7 -9.9 -9.999 -99.9 -99.99 -9.99
2019/07/18 23:06 PDT    5.08   5.37    4  221   11  57.4  58.5 1012.7 -9.9 -9.999 -99.9 -99.99 -9.99
2019/07/18 23:12 PDT    5.14   5.42    7  220   11  57.4  58.5 1012.7 -9.9 -9.999 -99.9 -99.99 -9.99
2019/07/18 23:18 PDT    5.21   5.45    6  220   10  57.4  58.5 1012.6 -9.9 -9.999 -99.9 -99.99 -9.99
2019/07/18 23:24 PDT    5.27   5.53    5  234    9  57.4  58.5 1012.5 -9.9 -9.999 -99.9 -99.99 -9.99
2019/07/18 23:30 PDT    5.33   5.59    6  214   10  57.4  58.5 1012.6 -9.9 -9.999 -99.9 -99.99 -9.99
2019/07/18 23:36 PDT    5.39   5.64    7  215   11  57.2  58.6 1012.6 -9.9 -9.999 -99.9 -99.99 -9.99
2019/07/18 23:42 PDT    5.44   5.71    8  220   11  57.2  58.6 1012.6 -9.9 -9.999 -99.9 -99.99 -9.99
2019/07/18 23:48 PDT    5.49   5.76    4  219   12  57.2  58.6 1012.6 -9.9 -9.999 -99.9 -99.99 -9.99
2019/07/18 23:54 PDT    5.54   5.84    6  226   10  57.2  58.6 1012.6 -9.9 -9.999 -99.9 -99.99 -9.99
2019/07/19 00:00 PDT    5.59   5.92    7  225    8  57.2  58.6 1012.6 -9.9 -9.999 -99.9 -99.99 -9.99
2019/07/19 00:06 PDT    5.63   5.96    6  225    9  57.2  58.3 1012.6 -9.9 -9.999 -99.9 -99.99 -9.99
2019/07/19 00:12 PDT    5.67   6.00    6  228    9  57.2  58.1 1012.6 -9.9 -9.999 -99.9 -99.99 -9.99
2019/07/19 00:18 PDT    5.70   6.02    5  239    8  57.2  58.1 1012.6 -9.9 -9.999 -99.9 -99.99 -9.99
2019/07/19 00:24 PDT    5.74   6.06 -999 -999 -999 -99.9 -99.9 -999.9 -9.9 -9.999 -99.9 -99.99 -9.99
2019/07/19 00:30 PDT    5.76   6.13    6  232    9  57.4  57.9 1012.5 -9.9 -9.999 -99.9 -99.99 -9.99
2019/07/19 00:36 PDT    5.79   6.16    4  232    9  57.4  57.7 1012.5 -9.9 -9.999 -99.9 -99.99 -9.99
2019/07/19 00:42 PDT    5.80   6.20    5  234   14  57.4  57.7 1012.5 -9.9 -9.999 -99.9 -99.99 -9.99
2019/07/19 00:48 PDT    5.82   6.20    5  256    8  57.4  57.7 1012.4 -9.9 -9.999 -99.9 -99.99 -9.99
2019/07/19 00:54 PDT    5.83   6.20    3  249    6  57.4  57.7 1012.4 -9.9 -9.999 -99.9 -99.99 -9.99
2019/07/19 01:00 PDT    5.83   6.23    3  224    7  57.2  57.7 1012.4 -9.9 -9.999 -99.9 -99.99 -9.99
2019/07/19 01:06 PDT    5.83   6.24    4  253    8  57.4  57.7 1012.3 -9.9 -9.999 -99.9 -99.99 -9.99
2019/07/19 01:12 PDT    5.82   6.24    4  231    8  57.4  57.7 1012.3 -9.9 -9.999 -99.9 -99.99 -9.99
2019/07/19 01:18 PDT    5.81   6.18    5  236    8  57.2  57.7 1012.2 -9.9 -9.999 -99.9 -99.99 -9.99
2019/07/19 01:24 PDT    5.79   6.17    6  223   12  57.2  57.6 1012.2 -9.9 -9.999 -99.9 -99.99 -9.99
2019/07/19 01:30 PDT    5.77   6.12    6  225    8  57.2  57.6 1012.1 -9.9 -9.999 -99.9 -99.99 -9.99
2019/07/19 01:36 PDT    5.74   6.11    6  244    8  57.2  57.6 1012.1 -9.9 -9.999 -99.9 -99.99 -9.99
2019/07/19 01:42 PDT    5.71   6.11    4  239    8  57.2  57.6 1012.1 -9.9 -9.999 -99.9 -99.99 -9.99
2019/07/19 01:48 PDT    5.67   6.07    4  212    8  57.2  57.6 1012.1 -9.9 -9.999 -99.9 -99.99 -9.99
2019/07/19 01:54 PDT    5.62   6.01    5  214    8  57.2  57.6 1012.0 -9.9 -9.999 -99.9 -99.99 -9.99
2019/07/19 02:00 PDT    5.57   6.00    4  216    7  57.2  57.6 1011.9 -9.9 -9.999 -99.9 -99.99 -9.99
2019/07/19 02:06 PDT    5.51   5.94    6  251   10  57.2  57.6 1011.9 -9.9 -9.999 -99.9 -99.99 -9.99
2019/07/19 02:12 PDT    5.44   5.86    4  211    9  57.2  57.6 1011.9 -9.9 -9.999 -99.9 -99.99 -9.99
2019/07/19 02:18 PDT    5.37   5.81    6  218    9  57.4  57.6 1011.9 -9.9 -9.999 -99.9 -99.99 -9.99
2019/07/19 02:24 PDT    5.29   5.75    7  237   11  57.4  57.6 1011.9 -9.9 -9.999 -99.9 -99.99 -9.99
2019/07/19 02:30 PDT    5.21   5.63    6  235   11  57.4  57.6 1011.8 -9.9 -9.999 -99.9 -99.99 -9.99
2019/07/19 02:36 PDT    5.12   5.59    4  247   11  57.6  57.6 1011.8 -9.9 -9.999 -99.9 -99.99 -9.99
2019/07/19 02:42 PDT    5.02   5.50    6  269   10  57.6  57.6 1011.9 -9.9 -9.999 -99.9 -99.99 -9.99
2019/07/19 02:48 PDT    4.92   5.38    4  239   10  57.6  57.6 1011.9 -9.9 -9.999 -99.9 -99.99 -9.99
2019/07/19 02:54 PDT    4.82   5.29    4  244   11  57.6  57.6 1011.9 -9.9 -9.999 -99.9 -99.99 -9.99
2019/07/19 03:00 PDT    4.71   5.18    5  243   10  57.7  57.6 1012.0 -9.9 -9.999 -99.9 -99.99 -9.99
2019/07/19 03:06 PDT    4.59   5.01    7  245   11  57.7  57.6 1012.0 -9.9 -9.999 -99.9 -99.99 -9.99
2019/07/19 03:12 PDT    4.48   4.86    6  235   10  57.7  57.6 1011.9 -9.9 -9.999 -99.9 -99.99 -9.99
2019/07/19 03:18 PDT    4.35   4.75    5  238    9  57.9  57.6 1011.8 -9.9 -9.999 -99.9 -99.99 -9.99
2019/07/19 03:24 PDT    4.22   4.61    6  235    9  57.9  57.6 1011.9 -9.9 -9.999 -99.9 -99.99 -9.99
2019/07/19 03:30 PDT    4.09   4.45    6  241    9  57.9  57.6 1011.9 -9.9 -9.999 -99.9 -99.99 -9.99
2019/07/19 03:36 PDT    3.96   4.32    7  243   10  57.9  57.6 1011.9 -9.9 -9.999 -99.9 -99.99 -9.99
2019/07/19 03:42 PDT    3.82   4.18    5  239    9  57.9  57.6 1011.9 -9.9 -9.999 -99.9 -99.99 -9.99
2019/07/19 03:48 PDT    3.68   4.01    4  246    9  57.9  57.6 1012.0 -9.9 -9.999 -99.9 -99.99 -9.99
2019/07/19 03:54 PDT    3.54   3.89    5  229    9  58.1  57.6 1012.0 -9.9 -9.999 -99.9 -99.99 -9.99
2019/07/19 04:00 PDT    3.39   3.78    4  229   11  58.1  57.6 1012.0 -9.9 -9.999 -99.9 -99.99 -9.99
2019/07/19 04:06 PDT    3.24   3.63    5  214    7  58.1  57.6 1011.9 -9.9 -9.999 -99.9 -99.99 -9.99
2019/07/19 04:12 PDT    3.10   3.46    5  219    8  58.1  57.6 1011.9 -9.9 -9.999 -99.9 -99.99 -9.99
2019/07/19 04:18 PDT    2.95   3.31    4  253    7  58.1  57.6 1011.9 -9.9 -9.999 -99.9 -99.99 -9.99
2019/07/19 04:24 PDT    2.80   3.14    4  247    6  58.1  57.6 1011.8 -9.9 -9.999 -99.9 -99.99 -9.99
2019/07/19 04:30 PDT    2.65   2.99    3  248    7  58.3  57.6 1011.9 -9.9 -9.999 -99.9 -99.99 -9.99
2019/07/19 04:36 PDT    2.50   2.86    5  238    9  58.5  57.6 1011.9 -9.9 -9.999 -99.9 -99.99 -9.99
2019/07/19 04:42 PDT    2.35   2.71    4  234    8  58.5  57.6 1011.9 -9.9 -9.999 -99.9 -99.99 -9.99
2019/07/19 04:48 PDT    2.20   2.53    4  235    7  58.5  57.6 1011.8 -9.9 -9.999 -99.9 -99.99 -9.99
2019/07/19 04:54 PDT    2.06   2.35    4  224   11  58.5  57.6 1011.8 -9.9 -9.999 -99.9 -99.99 -9.99
2019/07/19 05:00 PDT    1.91   2.21    4  250    8  58.5  57.6 1011.8 -9.9 -9.999 -99.9 -99.99 -9.99
2019/07/19 05:06 PDT    1.77   2.06    6  233   10  58.5  57.6 1011.8 -9.9 -9.999 -99.9 -99.99 -9.99
2019/07/19 05:12 PDT    1.63   1.91    6  211   11  58.5  57.6 1011.8 -9.9 -9.999 -99.9 -99.99 -9.99
2019/07/19 05:18 PDT    1.49   1.82    6  253   11  58.5  57.6 1011.8 -9.9 -9.999 -99.9 -99.99 -9.99
2019/07/19 05:24 PDT    1.36   1.73    4  278    9  58.5  57.6 1011.8 -9.9 -9.999 -99.9 -99.99 -9.99
2019/07/19 05:30 PDT    1.23   1.62    5  246   11  58.3  57.4 1011.9 -9.9 -9.999 -99.9 -99.99 -9.99
2019/07/19 05:36 PDT    1.10   1.52    4  249    8  58.3  57.4 1011.9 -9.9 -9.999 -99.9 -99.99 -9.99
2019/07/19 05:42 PDT    0.98   1.42    8  246   11  58.3  57.4 1011.9 -9.9 -9.999 -99.9 -99.99 -9.99
2019/07/19 05:48 PDT    0.86   1.32    6  241   11  58.3  57.4 1011.9 -9.9 -9.999 -99.9 -99.99 -9.99
2019/07/19 05:54 PDT    0.74   1.18    6  234   11  58.3  57.4 1012.0 -9.9 -9.999 -99.9 -99.99 -9.99
2019/07/19 06:00 PDT    0.64   1.08    7  227   13  58.3  57.4 1012.0 -9.9 -9.999 -99.9 -99.99 -9.99
2019/07/19 06:06 PDT    0.53   0.95    6  240   12  58.3  57.4 1012.0 -9.9 -9.999 -99.9 -99.99 -9.99
2019/07/19 06:12 PDT    0.43   0.86    6  236    9  58.3  57.4 1012.0 -9.9 -9.999 -99.9 -99.99 -9.99
2019/07/19 06:18 PDT    0.34   0.76    6  224   11  58.3  57.4 1012.1 -9.9 -9.999 -99.9 -99.99 -9.99
2019/07/19 06:24 PDT    0.25   0.68    4  254    8  58.3  57.4 1012.2 -9.9 -9.999 -99.9 -99.99 -9.99
2019/07/19 06:30 PDT    0.17   0.56    6  225   11  58.3  57.4 1012.2 -9.9 -9.999 -99.9 -99.99 -9.99
2019/07/19 06:36 PDT    0.10   0.48    7  249   12  58.5  57.4 1012.2 -9.9 -9.999 -99.9 -99.99 -9.99
2019/07/19 06:42 PDT    0.03   0.40    9  249   14  58.3  57.4 1012.2 -9.9 -9.999 -99.9 -99.99 -9.99
2019/07/19 06:48 PDT   -0.04   0.33    8  250   12  58.3  57.4 1012.2 -9.9 -9.999 -99.9 -99.99 -9.99
2019/07/19 06:54 PDT   -0.09   0.31 -999 -999 -999 -99.9 -99.9 -999.9 -9.9 -9.999 -99.9 -99.99 -9.99
2019/07/19 07:00 PDT   -0.15   0.29    8  222   11  58.5  57.4 1012.2 -9.9 -9.999 -99.9 -99.99 -9.99
2019/07/19 07:06 PDT   -0.19   0.25    7  216   11  58.5  57.4 1012.3 -9.9 -9.999 -99.9 -99.99 -9.99
2019/07/19 07:12 PDT   -0.23   0.21    7  229   11  58.5  57.4 1012.3 -9.9 -9.999 -99.9 -99.99 -9.99
2019/07/19 07:18 PDT   -0.26   0.17    7  231   10  58.6  57.4 1012.4 -9.9 -9.999 -99.9 -99.99 -9.99
2019/07/19 07:24 PDT   -0.29   0.14    7  230   11  58.6  57.4 1012.4 -9.9 -9.999 -99.9 -99.99 -9.99
2019/07/19 07:30 PDT   -0.31   0.12    6  234   11  58.8  57.4 1012.5 -9.9 -9.999 -99.9 -99.99 -9.99
2019/07/19 07:36 PDT   -0.33   0.12    6  225   11  59.2  57.4 1012.5 -9.9 -9.999 -99.9 -99.99 -9.99
2019/07/19 07:42 PDT   -0.34   0.10    8  225   12  59.4  57.4 1012.5 -9.9 -9.999 -99.9 -99.99 -9.99
2019/07/19 07:48 PDT   -0.34   0.07    8  231   10  59.4  57.4 1012.5 -9.9 -9.999 -99.9 -99.99 -9.99
2019/07/19 07:54 PDT   -0.34   0.05    8  228   12  59.5  57.4 1012.5 -9.9 -9.999 -99.9 -99.99 -9.99
2019/07/19 08:00 PDT   -0.33   0.04    6  214   10  59.7  58.1 1012.6 -9.9 -9.999 -99.9 -99.99 -9.99
2019/07/19 08:06 PDT   -0.32   0.06    5  211   11  59.9  58.5 1012.6 -9.9 -9.999 -99.9 -99.99 -9.99
2019/07/19 08:12 PDT   -0.30   0.09    4  221    6  60.3  58.8 1012.6 -9.9 -9.999 -99.9 -99.99 -9.99
2019/07/19 08:18 PDT   -0.28   0.12    5  261    6  61.0  58.8 1012.6 -9.9 -9.999 -99.9 -99.99 -9.99
2019/07/19 08:24 PDT   -0.25   0.11    7  221    9  61.5  58.8 1012.7 -9.9 -9.999 -99.9 -99.99 -9.99
2019/07/19 08:30 PDT   -0.21   0.12    8  222   11  61.2  58.8 1012.7 -9.9 -9.999 -99.9 -99.99 -9.99
2019/07/19 08:36 PDT   -0.17   0.14    7  230   12  61.2  58.8 1012.8 -9.9 -9.999 -99.9 -99.99 -9.99
2019/07/19 08:42 PDT   -0.13   0.18    6  222   10  61.5  58.6 1012.8 -9.9 -9.999 -99.9 -99.99 -9.99
2019/07/19 08:48 PDT   -0.08   0.22    5  215   11  61.5  58.8 1012.8 -9.9 -9.999 -99.9 -99.99 -9.99
2019/07/19 08:54 PDT   -0.03   0.30    8  226   13  61.3  59.0 1012.8 -9.9 -9.999 -99.9 -99.99 -9.99
2019/07/19 09:00 PDT    0.03   0.35    8  210   12  61.3  59.4 1012.9 -9.9 -9.999 -99.9 -99.99 -9.99
2019/07/19 09:06 PDT    0.09   0.42    7  233   11  61.3  59.9 1012.9 -9.9 -9.999 -99.9 -99.99 -9.99
2019/07/19 09:12 PDT    0.15   0.50    7  237   10  61.3  60.1 1012.8 -9.9 -9.999 -99.9 -99.99 -9.99
2019/07/19 09:18 PDT    0.22   0.58    5  241    9  61.9  60.3 1012.9 -9.9 -9.999 -99.9 -99.99 -9.99
2019/07/19 09:24 PDT    0.30   0.67    4  253    8  62.2  60.4 1012.9 -9.9 -9.999 -99.9 -99.99 -9.99
2019/07/19 09:30 PDT    0.37   0.75    8  253   11  62.1  60.6 1012.9 -9.9 -9.999 -99.9 -99.99 -9.99
2019/07/19 09:36 PDT    0.45   0.81    7  227   12  62.1  60.8 1013.0 -9.9 -9.999 -99.9 -99.99 -9.99
2019/07/19 09:42 PDT    0.54   0.86    7  228   11  62.2  61.0 1012.9 -9.9 -9.999 -99.9 -99.99 -9.99
2019/07/19 09:48 PDT    0.62   0.91    9  242   12  62.1  61.2 1012.9 -9.9 -9.999 -99.9 -99.99 -9.99
2019/07/19 09:54 PDT    0.71   0.99    7  232   13  62.8  61.2 1012.9 -9.9 -9.999 -99.9 -99.99 -9.99
2019/07/19 10:00 PDT    0.80   1.11   10  246   13  62.2  61.3 1013.0 -9.9 -9.999 -99.9 -99.99 -9.99
2019/07/19 10:06 PDT    0.90   1.21    8  238   13  62.4  61.3 1013.1 -9.9 -9.999 -99.9 -99.99 -9.99
2019/07/19 10:12 PDT    1.00   1.33    4  228   13  63.1  61.3 1013.1 -9.9 -9.999 -99.9 -99.99 -9.99
2019/07/19 10:18 PDT    1.09   1.44    9  222   14  63.0  61.3 1013.0 -9.9 -9.999 -99.9 -99.99 -9.99
2019/07/19 10:24 PDT    1.19   1.55    8  224   13  62.8  61.3 1013.1 -9.9 -9.999 -99.9 -99.99 -9.99
2019/07/19 10:30 PDT    1.30   1.64    9  213   13  63.0  61.3 1013.1 -9.9 -9.999 -99.9 -99.99 -9.99
2019/07/19 10:36 PDT    1.40   1.72    8  240   15  63.0  61.3 1013.1 -9.9 -9.999 -99.9 -99.99 -9.99
2019/07/19 10:42 PDT    1.50   1.85   10  241   14  63.0  61.3 1013.0 -9.9 -9.999 -99.9 -99.99 -9.99
2019/07/19 10:48 PDT    1.61   1.98   10  237   14  63.1  61.3 1013.1 -9.9 -9.999 -99.9 -99.99 -9.99
2019/07/19 10:54 PDT    1.72   2.08   10  231   15  63.1  61.3 1013.1 -9.9 -9.999 -99.9 -99.99 -9.99
2019/07/19 11:00 PDT    1.82   2.18   11  227   16  62.8  61.3 1013.1 -9.9 -9.999 -99.9 -99.99 -9.99
2019/07/19 11:06 PDT    1.93   2.31   11  248   17  63.3  61.3 1013.0 -9.9 -9.999 -99.9 -99.99 -9.99
2019/07/19 11:12 PDT    2.04   2.42   12  243   16  63.1  61.5 1013.1 -9.9 -9.999 -99.9 -99.99 -9.99
2019/07/19 11:18 PDT    2.15   2.52   12  219   16  63.1  61.7 1013.1 -9.9 -9.999 -99.9 -99.99 -9.99
2019/07/19 11:24 PDT    2.26   2.65    8  229   15  63.7  61.9 1013.1 -9.9 -9.999 -99.9 -99.99 -9.99
2019/07/19 11:30 PDT    2.36   2.72    9  235   16  63.5  61.7 1013.1 -9.9 -9.999 -99.9 -99.99 -9.99
2019/07/19 11:36 PDT    2.47   2.79   11  235   16  63.7  61.2 1013.2 -9.9 -9.999 -99.9 -99.99 -9.99
2019/07/19 11:42 PDT    2.58   2.91   13  227   18  63.0  61.2 1013.2 -9.9 -9.999 -99.9 -99.99 -9.99
2019/07/19 11:48 PDT    2.69   3.00   14  237   21  62.6  61.2 1013.3 -9.9 -9.999 -99.9 -99.99 -9.99
2019/07/19 11:54 PDT    2.79   3.11   12  237   18  63.3  61.7 1013.3 -9.9 -9.999 -99.9 -99.99 -9.99
2019/07/19 12:00 PDT    2.90   3.24   15  228   21  62.8  61.5 1013.4 -9.9 -9.999 -99.9 -99.99 -9.99
2019/07/19 12:06 PDT    3.00   3.35   12  220   18  63.3  61.5 1013.5 -9.9 -9.999 -99.9 -99.99 -9.99
2019/07/19 12:12 PDT    3.10   3.41   13  233   19  63.1  61.5 1013.4 -9.9 -9.999 -99.9 -99.99 -9.99
2019/07/19 12:18 PDT    3.21   3.48   13  229   20  63.1  61.5 1013.4 -9.9 -9.999 -99.9 -99.99 -9.99
2019/07/19 12:24 PDT    3.31   3.56   17  211   22  62.6  61.5 1013.5 -9.9 -9.999 -99.9 -99.99 -9.99
2019/07/19 12:30 PDT    3.41   3.66   18  210   25  62.4  61.2 1013.5 -9.9 -9.999 -99.9 -99.99 -9.99
2019/07/19 12:36 PDT    3.50   3.80   16  219   23  62.6  61.0 1013.4 -9.9 -9.999 -99.9 -99.99 -9.99
2019/07/19 12:42 PDT    3.60   3.91   13  202   21  62.4  60.8 1013.4 -9.9 -9.999 -99.9 -99.99 -9.99
2019/07/19 12:48 PDT    3.69   4.04   14  214   23  62.8  60.4 1013.4 -9.9 -9.999 -99.9 -99.99 -9.99
2019/07/19 12:54 PDT    3.79   4.15   15  210   23  62.6  59.9 1013.4 -9.9 -9.999 -99.9 -99.99 -9.99
2019/07/19 13:00 PDT    3.87   4.25   16  206   21  62.6  59.7 1013.4 -9.9 -9.999 -99.9 -99.99 -9.99
2019/07/19 13:06 PDT    3.96   4.33   17  205   24  62.4  59.7 1013.4 -9.9 -9.999 -99.9 -99.99 -9.99
2019/07/19 13:12 PDT    4.04   4.43   11  211   24  63.0  59.5 1013.4 -9.9 -9.999 -99.9 -99.99 -9.99
2019/07/19 13:18 PDT    4.13   4.51   12  217   17  63.1  59.5 1013.4 -9.9 -9.999 -99.9 -99.99 -9.99
2019/07/19 13:24 PDT    4.20   4.58   13  221   22  62.6  59.5 1013.4 -9.9 -9.999 -99.9 -99.99 -9.99
2019/07/19 13:30 PDT    4.28   4.62   12  225   19  62.8  59.5 1013.3 -9.9 -9.999 -99.9 -99.99 -9.99
2019/07/19 13:36 PDT    4.35   4.70   10  225   20  62.6  59.5 1013.4 -9.9 -9.999 -99.9 -99.99 -9.99
2019/07/19 13:42 PDT    4.42   4.78   15  231   21  62.6  59.5 1013.3 -9.9 -9.999 -99.9 -99.99 -9.99
2019/07/19 13:48 PDT    4.48   4.84   13  229   22  62.6  59.5 1013.3 -9.9 -9.999 -99.9 -99.99 -9.99
2019/07/19 13:54 PDT    4.54   4.89   11  223   21  62.6  59.5 1013.3 -9.9 -9.999 -99.9 -99.99 -9.99
2019/07/19 14:00 PDT    4.59   4.93   11  220   22  63.1  59.5 1013.2 -9.9 -9.999 -99.9 -99.99 -9.99
2019/07/19 14:06 PDT    4.64   4.97   15  222   22  62.6  59.5 1013.2 -9.9 -9.999 -99.9 -99.99 -9.99
2019/07/19 14:12 PDT    4.69   5.03   15  216   20  62.8  59.7 1013.2 -9.9 -9.999 -99.9 -99.99 -9.99
2019/07/19 14:18 PDT    4.73   5.09   15  218   24  62.4  59.7 1013.2 -9.9 -9.999 -99.9 -99.99 -9.99
2019/07/19 14:24 PDT    4.77   5.12   16  221   22  62.6  59.7 1013.2 -9.9 -9.999 -99.9 -99.99 -9.99
2019/07/19 14:30 PDT    4.80   5.17   12  220   22  62.8  59.7 1013.3 -9.9 -9.999 -99.9 -99.99 -9.99
2019/07/19 14:36 PDT    4.82   5.17   18  227   23  62.2  59.7 1013.3 -9.9 -9.999 -99.9 -99.99 -9.99
2019/07/19 14:42 PDT    4.85   5.20   12  223   21  62.4  59.7 1013.4 -9.9 -9.999 -99.9 -99.99 -9.99
2019/07/19 14:48 PDT    4.86   5.25   14  223   24  62.4  59.7 1013.4 -9.9 -9.999 -99.9 -99.99 -9.99
2019/07/19 14:54 PDT    4.87   5.28   14  237   21  62.1  59.7 1013.3 -9.9 -9.999 -99.9 -99.99 -9.99
2019/07/19 15:00 PDT    4.88   5.27   15  243   20  61.3  59.7 1013.4 -9.9 -9.999 -99.9 -99.99 -9.99
2019/07/19 15:06 PDT    4.88   5.27   14  246   20  61.2  59.7 1013.3 -9.9 -9.999 -99.9 -99.99 -9.99
2019/07/19 15:12 PDT    4.88   5.26   14  252   23  60.8  59.5 1013.4 -9.9 -9.999 -99.9 -99.99 -9.99
2019/07/19 15:18 PDT    4.87   5.24   14  272   18  60.4  59.2 1013.5 -9.9 -9.999 -99.9 -99.99 -9.99
2019/07/19 15:24 PDT    4.86   5.22   11  264   24  59.9  59.2 1013.5 -9.9 -9.999 -99.9 -99.99 -9.99
2019/07/19 15:30 PDT    4.84   5.19   10  254   20  60.1  59.2 1013.4 -9.9 -9.999 -99.9 -99.99 -9.99
2019/07/19 15:36 PDT    4.82   5.17   11  266   19  60.1  59.4 1013.4 -9.9 -9.999 -99.9 -99.99 -9.99
2019/07/19 15:42 PDT    4.80   5.17   12  278   19  60.1  59.5 1013.4 -9.9 -9.999 -99.9 -99.99 -9.99
2019/07/19 15:48 PDT    4.77   5.13   12  270   18  59.9  59.5 1013.4 -9.9 -9.999 -99.9 -99.99 -9.99
2019/07/19 15:54 PDT    4.73   5.08   11  267   18  59.9  59.5 1013.3 -9.9 -9.999 -99.9 -99.99 -9.99
2019/07/19 16:00 PDT    4.70   5.07   10  265   16  59.9  59.4 1013.2 -9.9 -9.999 -99.9 -99.99 -9.99
2019/07/19 16:06 PDT    4.66   5.05    9  261   14  59.9  59.4 1013.3 -9.9 -9.999 -99.9 -99.99 -9.99
2019/07/19 16:12 PDT    4.61   5.00    8  259   16  59.9  59.4 1013.2 -9.9 -9.999 -99.9 -99.99 -9.99
2019/07/19 16:18 PDT    4.56   4.96   10  257   17  59.7  59.4 1013.2 -9.9 -9.999 -99.9 -99.99 -9.99
2019/07/19 16:24 PDT    4.51   4.96    9  270   17  59.7  59.4 1013.1 -9.9 -9.999 -99.9 -99.99 -9.99
2019/07/19 16:30 PDT    4.46   4.90   11  260   16  59.9  59.2 1013.1 -9.9 -9.999 -99.9 -99.99 -9.99
2019/07/19 16:36 PDT    4.41   4.87   11  263   20  60.1  59.4 1013.1 -9.9 -9.999 -99.9 -99.99 -9.99
2019/07/19 16:42 PDT    4.35   4.86   11  254   17  60.4  59.4 1013.0 -9.9 -9.999 -99.9 -99.99 -9.99
2019/07/19 16:48 PDT    4.29   4.80   12  260   20  60.6  59.4 1012.9 -9.9 -9.999 -99.9 -99.99 -9.99
2019/07/19 16:54 PDT    4.23   4.71   11  258   19  60.8  59.4 1012.9 -9.9 -9.999 -99.9 -99.99 -9.99
2019/07/19 17:00 PDT    4.17   4.64   13  270   18  60.4  59.4 1012.9 -9.9 -9.999 -99.9 -99.99 -9.99
2019/07/19 17:06 PDT    4.10   4.56   10  270   17  60.3  59.4 1012.9 -9.9 -9.999 -99.9 -99.99 -9.99
2019/07/19 17:12 PDT    4.04   4.48   12  274   19  59.9  59.2 1012.9 -9.9 -9.999 -99.9 -99.99 -9.99
2019/07/19 17:18 PDT    3.98   4.45   11  269   18  59.9  59.4 1012.9 -9.9 -9.999 -99.9 -99.99 -9.99
2019/07/19 17:24 PDT    3.91   4.40   10  264   22  59.7  59.4 1012.8 -9.9 -9.999 -99.9 -99.99 -9.99
2019/07/19 17:30 PDT    3.85   4.34   12  258   19  59.7  59.4 1012.8 -9.9 -9.999 -99.9 -99.99 -9.99
2019/07/19 17:36 PDT    3.78   4.24   12  268   18  59.9  59.4 1012.8 -9.9 -9.999 -99.9 -99.99 -9.99
2019/07/19 17:42 PDT    3.72   4.15   12  267   19  59.9  59.4 1012.8 -9.9 -9.999 -99.9 -99.99 -9.99
2019/07/19 17:48 PDT    3.65   4.07   10  258   15  59.9  59.2 1012.7 -9.9 -9.999 -99.9 -99.99 -9.99
2019/07/19 17:54 PDT    3.59   4.01   10  255   19  59.7  59.2 1012.7 -9.9 -9.999 -99.9 -99.99 -9.99
2019/07/19 18:00 PDT    3.53   3.96   11  248   17  59.9  59.0 1012.7 -9.9 -9.999 -99.9 -99.99 -9.99
2019/07/19 18:06 PDT    3.47   3.93    9  253   15  59.9  58.8 1012.7 -9.9 -9.999 -99.9 -99.99 -9.99
2019/07/19 18:12 PDT    3.42   3.84   10  254   18  59.9  58.8 1012.6 -9.9 -9.999 -99.9 -99.99 -9.99
2019/07/19 18:18 PDT    3.36   3.77    8  253   16  59.9  58.8 1012.5 -9.9 -9.999 -99.9 -99.99 -9.99
2019/07/19 18:24 PDT    3.31   3.74   11  253   19  59.7  58.6 1012.5 -9.9 -9.999 -99.9 -99.99 -9.99
2019/07/19 18:30 PDT    3.26   3.68   11  247   17  59.7  58.6 1012.5 -9.9 -9.999 -99.9 -99.99 -9.99
2019/07/19 18:36 PDT    3.22   3.63   11  258   19  59.5  58.6 1012.6 -9.9 -9.999 -99.9 -99.99 -9.99
2019/07/19 18:42 PDT    3.17   3.58   12  257   19  59.5  58.6 1012.6 -9.9 -9.999 -99.9 -99.99 -9.99
2019/07/19 18:48 PDT    3.13   3.49   11  250   18  59.5  58.8 1012.6 -9.9 -9.999 -99.9 -99.99 -9.99
2019/07/19 18:54 PDT    3.09   3.42   11  258   18  59.5  58.6 1012.6 -9.9 -9.999 -99.9 -99.99 -9.99
2019/07/19 19:00 PDT    3.06   3.40   10  257   21  59.4  58.8 1012.6 -9.9 -9.999 -99.9 -99.99 -9.99
2019/07/19 19:06 PDT    3.03   3.38   12  265   18  59.4  58.8 1012.6 -9.9 -9.999 -99.9 -99.99 -9.99
2019/07/19 19:12 PDT    3.00   3.32   12  259   16  59.4  58.8 1012.6 -9.9 -9.999 -99.9 -99.99 -9.99
2019/07/19 19:18 PDT    2.98   3.33   12  262   18  59.4  59.0 1012.6 -9.9 -9.999 -99.9 -99.99 -9.99
2019/07/19 19:24 PDT    2.96   3.28   13  260   18  59.2  59.0 1012.5 -9.9 -9.999 -99.9 -99.99 -9.99
2019/07/19 19:30 PDT    2.94   3.26   10  262   18  59.2  59.0 1012.6 -9.9 -9.999 -99.9 -99.99 -9.99
2019/07/19 19:36 PDT    2.93   3.27   12  256   19  59.2  59.0 1012.6 -9.9 -9.999 -99.9 -99.99 -9.99
2019/07/19 19:42 PDT    2.92   3.25   10  249   16  59.2  59.0 1012.6 -9.9 -9.999 -99.9 -99.99 -9.99
2019/07/19 19:48 PDT    2.92   3.24   11  255   17  59.2  59.0 1012.6 -9.9 -9.999 -99.9 -99.99 -9.99
2019/07/19 19:54 PDT    2.91   3.25    9  246   17  59.2  59.0 1012.5 -9.9 -9.999 -99.9 -99.99 -9.99
2019/07/19 20:00 PDT    2.92   3.26   10  250   16  59.2  59.0 1012.5 -9.9 -9.999 -99.9 -99.99 -9.99
2019/07/19 20:06 PDT    2.92   3.26   11  255   17  59.2  59.0 1012.5 -9.9 -9.999 -99.9 -99.99 -9.99
2019/07/19 20:12 PDT    2.93   3.24   11  261   16  59.2  59.0 1012.6 -9.9 -9.999 -99.9 -99.99 -9.99
2019/07/19 20:18 PDT    2.94   3.26   11  243   15  59.2  59.2 1012.5 -9.9 -9.999 -99.9 -99.99 -9.99
2019/07/19 20:24 PDT    2.96   3.29   11  241   17  59.2  59.0 1012.5 -9.9 -9.999 -99.9 -99.99 -9.99
2019/07/19 20:30 PDT    2.98   3.33    9  249   17  59.2  59.2 1012.5 -9.9 -9.999 -99.9 -99.99 -9.99
2019/07/19 20:36 PDT    3.00   3.34   10  247   19  59.2  59.0 1012.5 -9.9 -9.999 -99.9 -99.99 -9.99
2019/07/19 20:42 PDT    3.03   3.36   10  249   14  59.2  59.2 1012.6 -9.9 -9.999 -99.9 -99.99 -9.99
2019/07/19 20:48 PDT    3.06   3.38   11  250   19  59.2  59.2 1012.5 -9.9 -9.999 -99.9 -99.99 -9.99
2019/07/19 20:54 PDT    3.09   3.38   10  245   15  59.2  59.2 1012.5 -9.9 -9.999 -99.9 -99.99 -9.99
2019/07/19 21:00 PDT    3.13   3.44   11  246   16  59.2  59.2 1012.6 -9.9 -9.999 -99.9 -99.99 -9.99
2019/07/19 21:06 PDT    3.16   3.51   10  250   15  59.0  59.2 1012.6 -9.9 -9.999 -99.9 -99.99 -9.99
2019/07/19 21:12 PDT    3.21   3.53   10  247   15  59.0  59.2 1012.6 -9.9 -9.999 -99.9 -99.99 -9.99
2019/07/19 21:18 PDT    3.25   3.55    6  258   16  59.0  59.2 1012.7 -9.9 -9.999 -99.9 -99.99 -9.99
2019/07/19 21:24 PDT    3.30   3.62    7  244   14  59.0  59.2 1012.8 -9.9 -9.999 -99.9 -99.99 -9.99
2019/07/19 21:30 PDT    3.35   3.68    7  240   15  59.0  59.0 1012.9 -9.9 -9.999 -99.9 -99.99 -9.99
2019/07/19 21:36 PDT    3.40   3.76    7  254   12  59.0  59.0 1012.9 -9.9 -9.999 -99.9 -99.99 -9.99
2019/07/19 21:42 PDT    3.46   3.85    7  254   10  59.0  59.0 1013.0 -9.9 -9.999 -99.9 -99.99 -9.99
2019/07/19 21:48 PDT    3.52   3.91    8  256   12  59.0  59.0 1013.0 -9.9 -9.999 -99.9 -99.99 -9.99
2019/07/19 21:54 PDT    3.58   3.96    9  267   14  59.0  58.8 1013.0 -9.9 -9.999 -99.9 -99.99 -9.99
2019/07/19 22:00 PDT    3.64   3.97    9  254   14  59.0  58.8 1013.0 -9.9 -9.999 -99.9 -99.99 -9.99
2019/07/19 22:06 PDT    3.70   4.03    5  255   11  59.0  58.8 1013.1 -9.9 -9.999 -99.9 -99.99 -9.99
2019/07/19 22:12 PDT    3.77   4.12    6  252   13  59.0  58.8 1013.1 -9.9 -9.999 -99.9 -99.99 -9.99
2019/07/19 22:18 PDT    3.84   4.17    5  242   14  59.2  58.8 1013.2 -9.9 -9.999 -99.9 -99.99 -9.99
2019/07/19 22:24 PDT    3.90   4.23    7  249   14  59.2  58.8 1013.2 -9.9 -9.999 -99.9 -99.99 -9.99
2019/07/19 22:30 PDT    3.97   4.33    6  256   12  59.2  58.8 1013.2 -9.9 -9.999 -99.9 -99.99 -9.99
2019/07/19 22:36 PDT    4.04   4.43    8  246   14  59.0  58.8 1013.2 -9.9 -9.999 -99.9 -99.99 -9.99
2019/07/19 22:42 PDT    4.11   4.51    6  260   10  59.0  58.8 1013.2 -9.9 -9.999 -99.9 -99.99 -9.99
2019/07/19 22:48 PDT    4.19   4.59    5  249   10  59.0  58.8 1013.3 -9.9 -9.999 -99.9 -99.99 -9.99
2019/07/19 22:54 PDT    4.26   4.63    7  268   11  59.0  58.8 1013.3 -9.9 -9.999 -99.9 -99.99 -9.99
2019/07/19 23:00 PDT    4.33   4.65    6  267   11  59.0  58.8 1013.3 -9.9 -9.999 -99.9 -99.99 -9.99
2019/07/19 23:06 PDT    4.40   4.72    6  245   11  59.0  58.8 1013.2 -9.9 -9.999 -99.9 -99.99 -9.99
2019/07/19 23:12 PDT    4.47   4.81    8  256   10  59.0  58.8 1013.2 -9.9 -9.999 -99.9 -99.99 -9.99
2019/07/19 23:18 PDT    4.54   4.86    6  256   10  59.0  58.8 1013.2 -9.9 -9.999 -99.9 -99.99 -9.99
2019/07/19 23:24 PDT    4.61   4.95    6  267   11  59.0  58.8 1013.2 -9.9 -9.999 -99.9 -99.99 -9.99
2019/07/19 23:30 PDT    4.68   5.01    4  273    9  59.0  58.8 1013.2 -9.9 -9.999 -99.9 -99.99 -9.99
2019/07/19 23:36 PDT    4.74   5.08    6  257   11  59.0  58.8 1013.2 -9.9 -9.999 -99.9 -99.99 -9.99
2019/07/19 23:42 PDT    4.81   5.16    6  280   11  59.0  58.8 1013.2 -9.9 -9.999 -99.9 -99.99 -9.99
2019/07/19 23:48 PDT    4.87   5.22    5  281   10  59.0  58.8 1013.2 -9.9 -9.999 -99.9 -99.99 -9.99
2019/07/19 23:54 PDT    4.93   5.26    6  265   10  59.0  58.8 1013.3 -9.9 -9.999 -99.9 -99.99 -9.99
2019/07/20 00:00 PDT    4.99   5.31    5  248   10  59.0  58.8 1013.2 -9.9 -9.999 -99.9 -99.99 -9.99
2019/07/20 00:06 PDT    5.05   5.38    5  281    8  59.0  58.8 1013.2 -9.9 -9.999 -99.9 -99.99 -9.99
2019/07/20 00:12 PDT    5.10   5.43    6  281   14  59.0  58.6 1013.2 -9.9 -9.999 -99.9 -99.99 -9.99
2019/07/20 00:18 PDT    5.16   5.48    7  276   10  58.8  58.6 1013.2 -9.9 -9.999 -99.9 -99.99 -9.99
2019/07/20 00:24 PDT    5.21   5.52    7  276   14  58.8  58.6 1013.2 -9.9 -9.999 -99.9 -99.99 -9.99
2019/07/20 00:30 PDT    5.25   5.55    6  259   10  58.8  58.8 1013.2 -9.9 -9.999 -99.9 -99.99 -9.99
2019/07/20 00:36 PDT    5.30   5.60    6  258   11  58.8  58.8 1013.2 -9.9 -9.999 -99.9 -99.99 -9.99
2019/07/20 00:42 PDT    5.34   5.67    7  258   12  58.8  58.8 1013.3 -9.9 -9.999 -99.9 -99.99 -9.99
2019/07/20 00:48 PDT    5.37   5.70    9  248   12  58.8  58.8 1013.3 -9.9 -9.999 -99.9 -99.99 -9.99
2019/07/20 00:54 PDT    5.41   5.73    6  261   11  58.8  58.8 1013.3 -9.9 -9.999 -99.9 -99.99 -9.99
2019/07/20 01:00 PDT    5.44   5.77    5  251    8  58.6  58.5 1013.3 -9.9 -9.999 -99.9 -99.99 -9.99
2019/07/20 01:06 PDT    5.46   5.79    5  246   15  58.6  58.5 1013.3 -9.9 -9.999 -99.9 -99.99 -9.99
2019/07/20 01:12 PDT    5.49   5.79    6  251   11  58.6  58.5 1013.4 -9.9 -9.999 -99.9 -99.99 -9.99
2019/07/20 01:18 PDT    5.51   5.81    6  259   11  58.6  58.3 1013.4 -9.9 -9.999 -99.9 -99.99 -9.99
2019/07/20 01:24 PDT    5.52   5.81    4  254   11  58.6  58.3 1013.4 -9.9 -9.999 -99.9 -99.99 -9.99
2019/07/20 01:30 PDT    5.53   5.84    5  260   10  58.6  58.3 1013.5 -9.9 -9.999 -99.9 -99.99 -9.99
2019/07/20 01:36 PDT    5.54   5.86    7  258   12  58.6  58.1 1013.5 -9.9 -9.999 -99.9 -99.99 -9.99
2019/07/20 01:42 PDT    5.54   5.87    4  260   11  58.6  58.1 1013.5 -9.9 -9.999 -99.9 -99.99 -9.99
2019/07/20 01:48 PDT    5.53   5.86    7  257   11  58.6  58.1 1013.5 -9.9 -9.999 -99.9 -99.99 -9.99
2019/07/20 01:54 PDT    5.52   5.88    6  258   10  58.5  58.1 1013.5 -9.9 -9.999 -99.9 -99.99 -9.99
2019/07/20 02:00 PDT    5.51   5.88    7  250   11  58.5  58.1 1013.5 -9.9 -9.999 -99.9 -99.99 -9.99
2019/07/20 02:06 PDT    5.49   5.84    7  243   12  58.6  58.1 1013.5 -9.9 -9.999 -99.9 -99.99 -9.99
2019/07/20 02:12 PDT    5.46   5.81    7  262   11  58.6  58.1 1013.5 -9.9 -9.999 -99.9 -99.99 -9.99
2019/07/20 02:18 PDT    5.43   5.77    8  253   14  58.5  57.9 1013.5 -9.9 -9.999 -99.9 -99.99 -9.99
2019/07/20 02:24 PDT    5.40   5.74    6  253    9  58.5  57.9 1013.4 -9.9 -9.999 -99.9 -99.99 -9.99
2019/07/20 02:30 PDT    5.36   5.71    6  246   12  58.6  57.9 1013.4 -9.9 -9.999 -99.9 -99.99 -9.99
2019/07/20 02:36 PDT    5.31   5.66    8  246   11  58.6  57.9 1013.4 -9.9 -9.999 -99.9 -99.99 -9.99
2019/07/20 02:42 PDT    5.26   5.59    6  255   11  58.6  57.9 1013.5 -9.9 -9.999 -99.9 -99.99 -9.99
2019/07/20 02:48 PDT    5.20   5.52    6  247   11  58.6  57.9 1013.5 -9.9 -9.999 -99.9 -99.99 -9.99
2019/07/20 02:54 PDT    5.14   5.46    5  244   10  58.6  57.9 1013.4 -9.9 -9.999 -99.9 -99.99 -9.99
2019/07/20 03:00 PDT    5.07   5.37    5  250   11  58.6  57.9 1013.4 -9.9 -9.999 -99.9 -99.99 -9.99
2019/07/20 03:06 PDT    4.99   5.30    6  257    9  58.5  57.9 1013.4 -9.9 -9.999 -99.9 -99.99 -9.99
2019/07/20 03:12 PDT    4.91   5.22    4  253    8  58.5  57.9 1013.4 -9.9 -9.999 -99.9 -99.99 -9.99
2019/07/20 03:18 PDT    4.83   5.10    6  265   11  58.5  57.9 1013.3 -9.9 -9.999 -99.9 -99.99 -9.99
2019/07/20 03:24 PDT    4.74   5.01    6  258    9  58.5  57.9 1013.3 -9.9 -9.999 -99.9 -99.99 -9.99
2019/07/20 03:30 PDT    4.64   4.90    6  241   11  58.5  57.9 1013.3 -9.9 -9.999 -99.9 -99.99 -9.99
2019/07/20 03:36 PDT    4.54   4.81    5  237    9  58.5  57.7 1013.3 -9.9 -9.999 -99.9 -99.99 -9.99
2019/07/20 03:42 PDT    4.44   4.74    6  259   10  58.5  57.7 1013.2 -9.9 -9.999 -99.9 -99.99 -9.99
2019/07/20 03:48 PDT    4.33   4.68    7  240   10  58.5  57.7 1013.2 -9.9 -9.999 -99.9 -99.99 -9.99
2019/07/20 03:54 PDT    4.22   4.56    3  236    9  58.5  57.7 1013.1 -9.9 -9.999 -99.9 -99.99 -9.99
2019/07/20 04:00 PDT    4.10   4.42    5  239    8  58.5  57.7 1013.2 -9.9 -9.999 -99.9 -99.99 -9.99
2019/07/20 04:06 PDT    3.98   4.27    5  249    7  58.5  57.7 1013.2 -9.9 -9.999 -99.9 -99.99 -9.99
2019/07/20 04:12 PDT    3.86   4.12    5  266    8  58.5  57.7 1013.2 -9.9 -9.999 -99.9 -99.99 -9.99
2019/07/20 04:18 PDT    3.73   3.98    6  243   12  58.5  57.7 1013.1 -9.9 -9.999 -99.9 -99.99 -9.99
2019/07/20 04:24 PDT    3.60   3.88    4  252    9  58.5  57.7 1013.2 -9.9 -9.999 -99.9 -99.99 -9.99
2019/07/20 04:30 PDT    3.47   3.74    5  252   12  58.6  57.7 1013.2 -9.9 -9.999 -99.9 -99.99 -9.99
2019/07/20 04:36 PDT    3.34   3.62    6  242   11  58.6  57.7 1013.3 -9.9 -9.999 -99.9 -99.99 -9.99
2019/07/20 04:42 PDT    3.21   3.48    4  251    7  58.6  57.7 1013.4 -9.9 -9.999 -99.9 -99.99 -9.99
2019/07/20 04:48 PDT    3.07   3.34    6  229   10  58.6  57.7 1013.4 -9.9 -9.999 -99.9 -99.99 -9.99
2019/07/20 04:54 PDT    2.93   3.20    3  252    9  58.6  57.7 1013.4 -9.9 -9.999 -99.9 -99.99 -9.99
2019/07/20 05:00 PDT    2.80   3.06    4  274    7  58.5  57.7 1013.4 -9.9 -9.999 -99.9 -99.99 -9.99
2019/07/20 05:06 PDT    2.66   2.90    3  261   11  58.5  57.7 1013.4 -9.9 -9.999 -99.9 -99.99 -9.99
2019/07/20 05:12 PDT    2.52   2.73    4  255   10  58.5  57.7 1013.4 -9.9 -9.999 -99.9 -99.99 -9.99
2019/07/20 05:18 PDT    2.39   2.55    4  247    9  58.5  57.7 1013.5 -9.9 -9.999 -99.9 -99.99 -9.99
2019/07/20 05:24 PDT    2.25   2.43    4  224    6  58.5  57.7 1013.5 -9.9 -9.999 -99.9 -99.99 -9.99
2019/07/20 05:30 PDT    2.11   2.29    7  234   11  58.5  57.7 1013.5 -9.9 -9.999 -99.9 -99.99 -9.99
2019/07/20 05:36 PDT    1.98   2.14    4  234    9  58.6  57.7 1013.5 -9.9 -9.999 -99.9 -99.99 -9.99
2019/07/20 05:42 PDT    1.85   2.03    4  258    9  58.6  57.7 1013.6 -9.9 -9.999 -99.9 -99.99 -9.99
2019/07/20 05:48 PDT    1.72   1.95    5  261    9  58.6  57.7 1013.6 -9.9 -9.999 -99.9 -99.99 -9.99
2019/07/20 05:54 PDT    1.59   1.82    5  242    8  58.6  57.7 1013.7 -9.9 -9.999 -99.9 -99.99 -9.99
2019/07/20 06:00 PDT    1.47   1.73    6  245   11  58.6  57.7 1013.7 -9.9 -9.999 -99.9 -99.99 -9.99
2019/07/20 06:06 PDT    1.35   1.67    4  241    7  58.6  57.7 1013.8 -9.9 -9.999 -99.9 -99.99 -9.99
2019/07/20 06:12 PDT    1.23   1.58    5  238    8  58.6  57.7 1013.8 -9.9 -9.999 -99.9 -99.99 -9.99
2019/07/20 06:18 PDT    1.12   1.47    4  239   10  58.5  57.7 1013.8 -9.9 -9.999 -99.9 -99.99 -9.99
2019/07/20 06:24 PDT    1.01   1.32    6  261    9  58.5  57.7 1013.8 -9.9 -9.999 -99.9 -99.99 -9.99
2019/07/20 06:30 PDT    0.90   1.21    5  260   10  58.5  57.7 1013.8 -9.9 -9.999 -99.9 -99.99 -9.99
2019/07/20 06:36 PDT    0.80   1.08    4  271    9  58.6  57.7 1013.8 -9.9 -9.999 -99.9 -99.99 -9.99
2019/07/20 06:42 PDT    0.71   0.98    4  273    6  58.5  57.7 1013.9 -9.9 -9.999 -99.9 -99.99 -9.99
2019/07/20 06:48 PDT    0.62   0.90    2  268    7  58.5  57.7 1013.9 -9.9 -9.999 -99.9 -99.99 -9.99
2019/07/20 06:54 PDT    0.53   0.81    3  278    9  58.6  57.7 1014.0 -9.9 -9.999 -99.9 -99.99 -9.99
2019/07/20 07:00 PDT    0.45   0.76    6  254    9  58.6  57.7 1013.9 -9.9 -9.999 -99.9 -99.99 -9.99
2019/07/20 07:06 PDT    0.37   0.72    3  236    9  58.6  57.9 1014.0 -9.9 -9.999 -99.9 -99.99 -9.99
2019/07/20 07:12 PDT    0.30   0.69    4  255    9  58.8  57.9 1014.1 -9.9 -9.999 -99.9 -99.99 -9.99
2019/07/20 07:18 PDT    0.24   0.65    4  273    9  58.6  57.9 1014.1 -9.9 -9.999 -99.9 -99.99 -9.99
2019/07/20 07:24 PDT    0.18   0.60    3  258    7  58.6  57.9 1014.1 -9.9 -9.999 -99.9 -99.99 -9.99
2019/07/20 07:30 PDT    0.13   0.51    3  257    7  58.6  57.9 1014.2 -9.9 -9.999 -99.9 -99.99 -9.99
2019/07/20 07:36 PDT    0.08   0.44    4  276    7  58.6  57.9 1014.2 -9.9 -9.999 -99.9 -99.99 -9.99
2019/07/20 07:42 PDT    0.04   0.40    4  240    7  58.8  57.9 1014.2 -9.9 -9.999 -99.9 -99.99 -9.99
2019/07/20 07:48 PDT    0.00   0.39    4  258    7  58.8  57.9 1014.3 -9.9 -9.999 -99.9 -99.99 -9.99
2019/07/20 07:54 PDT   -0.03   0.34    4  278    9  58.8  57.9 1014.4 -9.9 -9.999 -99.9 -99.99 -9.99
2019/07/20 08:00 PDT   -0.05   0.31    1  302   10  58.8  57.9 1014.5 -9.9 -9.999 -99.9 -99.99 -9.99
2019/07/20 08:06 PDT   -0.07   0.28    5  251    8  58.8  57.9 1014.5 -9.9 -9.999 -99.9 -99.99 -9.99
2019/07/20 08:12 PDT   -0.08   0.25    3  259    8  58.8  58.1 1014.6 -9.9 -9.999 -99.9 -99.99 -9.99
2019/07/20 08:18 PDT   -0.09   0.23    5  268    9  59.0  58.5 1014.6 -9.9 -9.999 -99.9 -99.99 -9.99
2019/07/20 08:24 PDT   -0.09   0.24    4  246    8  59.2  58.8 1014.7 -9.9 -9.999 -99.9 -99.99 -9.99
2019/07/20 08:30 PDT   -0.09   0.22    6  253   10  59.4  58.8 1014.7 -9.9 -9.999 -99.9 -99.99 -9.99
2019/07/20 08:36 PDT   -0.08   0.21    4  255   10  59.5  58.8 1014.7 -9.9 -9.999 -99.9 -99.99 -9.99
2019/07/20 08:42 PDT   -0.06   0.22    7  278   10  59.5  58.8 1014.7 -9.9 -9.999 -99.9 -99.99 -9.99
2019/07/20 08:48 PDT   -0.05   0.25    4  234    8  59.5  58.8 1014.8 -9.9 -9.999 -99.9 -99.99 -9.99
2019/07/20 08:54 PDT   -0.02   0.29    4  278    9  59.5  58.8 1014.8 -9.9 -9.999 -99.9 -99.99 -9.99
2019/07/20 09:00 PDT    0.01   0.31    5  281    9  59.4  59.0 1014.8 -9.9 -9.999 -99.9 -99.99 -9.99
2019/07/20 09:06 PDT    0.04   0.37    6  266   10  59.5  59.0 1014.9 -9.9 -9.999 -99.9 -99.99 -9.99
2019/07/20 09:12 PDT    0.08   0.41    5  264    9  59.4  59.5 1014.9 -9.9 -9.999 -99.9 -99.99 -9.99
2019/07/20 09:18 PDT    0.12   0.49    5  260   10  59.5  60.1 1014.9 -9.9 -9.999 -99.9 -99.99 -9.99
2019/07/20 09:24 PDT    0.17   0.56    4  237   10  59.5  60.4 1014.9 -9.9 -9.999 -99.9 -99.99 -9.99
2019/07/20 09:30 PDT    0.22   0.63    6  278   12  59.7  60.6 1014.9 -9.9 -9.999 -99.9 -99.99 -9.99
2019/07/20 09:36 PDT    0.28   0.68    7  254   12  59.7  60.8 1014.9 -9.9 -9.999 -99.9 -99.99 -9.99
2019/07/20 09:42 PDT    0.34   0.72    7  269   10  59.5  60.8 1014.9 -9.9 -9.999 -99.9 -99.99 -9.99
2019/07/20 09:48 PDT    0.40   0.74    6  251   13  59.5  60.8 1014.9 -9.9 -9.999 -99.9 -99.99 -9.99
2019/07/20 09:54 PDT    0.47   0.82    8  276   11  59.5  61.0 1014.8 -9.9 -9.999 -99.9 -99.99 -9.99
2019/07/20 10:00 PDT    0.54   0.89    5  268   10  59.7  61.0 1014.9 -9.9 -9.999 -99.9 -99.99 -9.99
2019/07/20 10:06 PDT    0.61   0.96    8  267   13  59.7  61.2 1014.9 -9.9 -9.999 -99.9 -99.99 -9.99
2019/07/20 10:12 PDT    0.69   1.01    8  279   13  59.4  61.2 1014.9 -9.9 -9.999 -99.9 -99.99 -9.99
2019/07/20 10:18 PDT    0.77   1.12    7  280   11  59.7  61.2 1014.9 -9.9 -9.999 -99.9 -99.99 -9.99
2019/07/20 10:24 PDT    0.86   1.19    8  271   13  59.5  61.3 1015.0 -9.9 -9.999 -99.9 -99.99 -9.99
2019/07/20 10:30 PDT    0.95   1.23    9  269   13  59.7  61.5 1015.1 -9.9 -9.999 -99.9 -99.99 -9.99
2019/07/20 10:36 PDT    1.04   1.33    7  272   13  59.7  61.5 1015.1 -9.9 -9.999 -99.9 -99.99 -9.99
2019/07/20 10:42 PDT    1.13   1.42    7  288   13  60.1  61.5 1015.1 -9.9 -9.999 -99.9 -99.99 -9.99
2019/07/20 10:48 PDT    1.22   1.51    7  273   11  59.9  61.7 1015.1 -9.9 -9.999 -99.9 -99.99 -9.99
2019/07/20 10:54 PDT    1.32   1.61    8  266   12  59.9  61.7 1015.1 -9.9 -9.999 -99.9 -99.99 -9.99
2019/07/20 11:00 PDT    1.42   1.71    7  274   14  60.1  61.5 1015.1 -9.9 -9.999 -99.9 -99.99 -9.99
2019/07/20 11:06 PDT    1.52   1.81    7  266   13  60.3  61.3 1015.2 -9.9 -9.999 -99.9 -99.99 -9.99
2019/07/20 11:12 PDT    1.62   1.91    7  243   12  60.3  61.5 1015.2 -9.9 -9.999 -99.9 -99.99 -9.99
2019/07/20 11:18 PDT    1.72   2.02    7  260   13  60.4  61.5 1015.2 -9.9 -9.999 -99.9 -99.99 -9.99
2019/07/20 11:24 PDT    1.83   2.15    9  272   14  60.3  61.7 1015.1 -9.9 -9.999 -99.9 -99.99 -9.99
2019/07/20 11:30 PDT    1.93   2.23    7  258   12  60.6  61.7 1015.2 -9.9 -9.999 -99.9 -99.99 -9.99
2019/07/20 11:36 PDT    2.04   2.31    9  266   16  60.6  61.9 1015.2 -9.9 -9.999 -99.9 -99.99 -9.99
2019/07/20 11:42 PDT    2.14   2.40    8  267   15  60.6  61.9 1015.2 -9.9 -9.999 -99.9 -99.99 -9.99
2019/07/20 11:48 PDT    2.25   2.50    6  273   14  60.6  61.9 1015.2 -9.9 -9.999 -99.9 -99.99 -9.99
2019/07/20 11:54 PDT    2.35   2.63    8  263   15  60.8  61.9 1015.2 -9.9 -9.999 -99.9 -99.99 -9.99
2019/07/20 12:00 PDT    2.46   2.72    7  266   13  60.8  62.1 1015.1 -9.9 -9.999 -99.9 -99.99 -9.99
2019/07/20 12:06 PDT    2.57   2.85    8  267   13  61.0  61.9 1015.1 -9.9 -9.999 -99.9 -99.99 -9.99
2019/07/20 12:12 PDT    2.67   2.94   11  246   15  60.8  61.5 1015.1 -9.9 -9.999 -99.9 -99.99 -9.99
2019/07/20 12:18 PDT    2.77   3.03    7  265   14  60.8  61.7 1015.1 -9.9 -9.999 -99.9 -99.99 -9.99
2019/07/20 12:24 PDT    2.88   3.14    8  265   14  60.4  61.9 1015.1 -9.9 -9.999 -99.9 -99.99 -9.99
2019/07/20 12:30 PDT    2.98   3.24    8  249   13  60.4  62.1 1015.1 -9.9 -9.999 -99.9 -99.99 -9.99
2019/07/20 12:36 PDT    3.08   3.34   10  246   16  60.1  61.9 1015.1 -9.9 -9.999 -99.9 -99.99 -9.99
2019/07/20 12:42 PDT    3.18   3.43   11  264   16  59.9  61.9 1015.1 -9.9 -9.999 -99.9 -99.99 -9.99
2019/07/20 12:48 PDT    3.28   3.53   11  254   17  59.7  61.7 1015.1 -9.9 -9.999 -99.9 -99.99 -9.99
2019/07/20 12:54 PDT    3.38   3.63   10  261   16  59.5  61.7 1015.1 -9.9 -9.999 -99.9 -99.99 -9.99
2019/07/20 13:00 PDT    3.47   3.73    9  251   15  59.7  61.7 1015.1 -9.9 -9.999 -99.9 -99.99 -9.99
2019/07/20 13:06 PDT    3.56   3.80    6  257   13  59.9  61.5 1015.0 -9.9 -9.999 -99.9 -99.99 -9.99
2019/07/20 13:12 PDT    3.66   3.91    7  278   14  59.5  61.2 1015.0 -9.9 -9.999 -99.9 -99.99 -9.99
2019/07/20 13:18 PDT    3.75   4.01    8  286   14  59.4  61.0 1014.9 -9.9 -9.999 -99.9 -99.99 -9.99
2019/07/20 13:24 PDT    3.83   4.14    8  278   13  59.2  60.8 1015.0 -9.9 -9.999 -99.9 -99.99 -9.99
2019/07/20 13:30 PDT    3.92   4.23    8  287   13  59.4  60.4 1014.9 -9.9 -9.999 -99.9 -99.99 -9.99
2019/07/20 13:36 PDT    4.00   4.28    9  297   13  59.2  60.1 1014.9 -9.9 -9.999 -99.9 -99.99 -9.99
2019/07/20 13:42 PDT    4.08   4.33    7  289   11  59.2  59.9 1014.9 -9.9 -9.999 -99.9 -99.99 -9.99
2019/07/20 13:48 PDT    4.16   4.39    6  286   12  59.2  59.9 1014.8 -9.9 -9.999 -99.9 -99.99 -9.99
2019/07/20 13:54 PDT    4.23   4.47 -999 -999 -999 -99.9 -99.9 -999.9 -9.9 -9.999 -99.9 -99.99 -9.99
2019/07/20 14:00 PDT    4.30   4.58    6  293   12  59.4  59.9 1014.6 -9.9 -9.999 -99.9 -99.99 -9.99
2019/07/20 14:06 PDT    4.37   4.66    6  275   11  59.2  59.9 1014.5 -9.9 -9.999 -99.9 -99.99 -9.99
2019/07/20 14:12 PDT    4.44   4.70    6  288   13  59.2  59.9 1014.5 -9.9 -9.999 -99.9 -99.99 -9.99
2019/07/20 14:18 PDT    4.50   4.74    4  274   10  59.4  60.1 1014.5 -9.9 -9.999 -99.9 -99.99 -9.99
2019/07/20 14:24 PDT    4.55   4.81    6  232   12  59.4  59.9 1014.4 -9.9 -9.999 -99.9 -99.99 -9.99
2019/07/20 14:30 PDT    4.61   4.89    6  262   11  59.2  59.9 1014.4 -9.9 -9.999 -99.9 -99.99 -9.99
2019/07/20 14:36 PDT    4.66   4.96    5  246   10  59.4  60.1 1014.4 -9.9 -9.999 -99.9 -99.99 -9.99
2019/07/20 14:42 PDT    4.70   5.01    4  255    9  59.7  60.1 1014.4 -9.9 -9.999 -99.9 -99.99 -9.99
2019/07/20 14:48 PDT    4.74   5.05    7  262   12  59.5  59.9 1014.3 -9.9 -9.999 -99.9 -99.99 -9.99
2019/07/20 14:54 PDT    4.78   5.07    7  260   12  59.5  59.9 1014.3 -9.9 -9.999 -99.9 -99.99 -9.99
2019/07/20 15:00 PDT    4.81   5.08    7  263   13  59.4  59.9 1014.2 -9.9 -9.999 -99.9 -99.99 -9.99
2019/07/20 15:06 PDT    4.84   5.12    7  266   12  59.9  59.9 1014.1 -9.9 -9.999 -99.9 -99.99 -9.99
2019/07/20 15:12 PDT    4.86   5.14    7  265   15  59.9  59.9 1014.1 -9.9 -9.999 -99.9 -99.99 -9.99
2019/07/20 15:18 PDT    4.88   5.18    9  264   16  59.5  59.9 1014.1 -9.9 -9.999 -99.9 -99.99 -9.99
2019/07/20 15:24 PDT    4.89   5.21    5  259   14  60.1  59.9 1014.0 -9.9 -9.999 -99.9 -99.99 -9.99
2019/07/20 15:30 PDT    4.90   5.17   10  239   15  59.7  59.9 1014.0 -9.9 -9.999 -99.9 -99.99 -9.99
2019/07/20 15:36 PDT    4.90   5.15    7  265   12  59.9  59.9 1013.9 -9.9 -9.999 -99.9 -99.99 -9.99
2019/07/20 15:42 PDT    4.90   5.15    7  246   13  59.9  59.9 1013.8 -9.9 -9.999 -99.9 -99.99 -9.99
2019/07/20 15:48 PDT    4.89   5.15    4  262   11  60.1  59.7 1013.8 -9.9 -9.999 -99.9 -99.99 -9.99
2019/07/20 15:54 PDT    4.88   5.14    6  273   12  60.1  59.7 1013.7 -9.9 -9.999 -99.9 -99.99 -9.99
2019/07/20 16:00 PDT    4.87   5.12    3  255   10  60.4  59.7 1013.7 -9.9 -9.999 -99.9 -99.99 -9.99
2019/07/20 16:06 PDT    4.85   5.11    4  277   15  60.3  59.7 1013.6 -9.9 -9.999 -99.9 -99.99 -9.99
2019/07/20 16:12 PDT    4.82   5.11    5  248   11  60.3  59.7 1013.6 -9.9 -9.999 -99.9 -99.99 -9.99
2019/07/20 16:18 PDT    4.80   5.09    8  250   16  59.9  59.7 1013.5 -9.9 -9.999 -99.9 -99.99 -9.99
2019/07/20 16:24 PDT    4.76   5.13    6  237   11  59.9  59.9 1013.5 -9.9 -9.999 -99.9 -99.99 -9.99
2019/07/20 16:30 PDT    4.73   5.12    5  265   17  59.7  59.9 1013.4 -9.9 -9.999 -99.9 -99.99 -9.99
2019/07/20 16:36 PDT    4.69   5.09    7  239   16  59.9  59.7 1013.3 -9.9 -9.999 -99.9 -99.99 -9.99
2019/07/20 16:42 PDT    4.65   5.04    5  250   15  59.9  59.5 1013.3 -9.9 -9.999 -99.9 -99.99 -9.99
2019/07/20 16:48 PDT    4.60   4.96    6  269   12  59.9  59.5 1013.3 -9.9 -9.999 -99.9 -99.99 -9.99
2019/07/20 16:54 PDT    4.55   4.88    7  267   12  59.9  59.5 1013.2 -9.9 -9.999 -99.9 -99.99 -9.99
2019/07/20 17:00 PDT    4.50   4.83    4  258   11  59.7  59.5 1013.1 -9.9 -9.999 -99.9 -99.99 -9.99
2019/07/20 17:06 PDT    4.45   4.81    8  259   12  59.7  59.7 1013.1 -9.9 -9.999 -99.9 -99.99 -9.99
2019/07/20 17:12 PDT    4.39   4.76    6  269   11  59.5  59.7 1013.0 -9.9 -9.999 -99.9 -99.99 -9.99
2019/07/20 17:18 PDT    4.34   4.72    7  263   13  59.5  59.7 1013.0 -9.9 -9.999 -99.9 -99.99 -9.99
2019/07/20 17:24 PDT    4.28   4.67    7  266   16  59.4  59.7 1013.0 -9.9 -9.999 -99.9 -99.99 -9.99
2019/07/20 17:30 PDT    4.22 -99.99 -999 -999 -999 -99.9 -99.9 -999.9 -9.9 -9.999 -99.9 -99.99 -9.99
2019/07/20 17:36 PDT    4.15 -99.99 -999 -999 -999 -99.9 -99.9 -999.9 -9.9 -9.999 -99.9 -99.99 -9.99

Revised: 08/08/2018
NOAA / National Ocean Service
Web site owner: Center for Operational Oceanographic Products and Services